Observation data for Dozier on 07/06/2020      Previous  Date  Next       Current Mesonet Observations  Soil Data  Daily Summary Page  Observations in Plain Language
KDO1 060500Z 04001KT 24/20 A2999 RMK A01 T02360200  RH  080%=      5-min Rain = 0
KDO1 060501Z 02001KT 24/20 A2999 RMK A01 T02360200  RH  080%=      5-min Rain = 0
KDO1 060502Z 36001KT 24/20 A2999 RMK A01 T02360200  RH  081%=      5-min Rain = 0
KDO1 060503Z 36001KT 24/20 A2999 RMK A01 T02350200  RH  081%=      5-min Rain = 0
KDO1 060504Z 01001KT 24/20 A2999 RMK A01 T02350199  RH  080%=      5-min Rain = 0
KDO1 060505Z 00002KT 24/20 A2999 RMK A01 T02350199  RH  081%=      5-min Rain = 0
KDO1 060506Z 00002KT 23/20 A2999 RMK A01 T02340200  RH  081%=      5-min Rain = 0
KDO1 060507Z 02001KT 23/20 A2999 RMK A01 T02340200  RH  081%=      5-min Rain = 0
KDO1 060508Z 04001KT 23/20 A2999 RMK A01 T02340200  RH  081%=      5-min Rain = 0
KDO1 060509Z 03002KT 23/20 A2999 RMK A01 T02340200  RH  081%=      5-min Rain = 0
KDO1 060510Z 03002KT 23/20 A2999 RMK A01 T02340201  RH  082%=      5-min Rain = 0
KDO1 060511Z 01002KT 23/20 A2999 RMK A01 T02340201  RH  082%=      5-min Rain = 0
KDO1 060512Z 03002KT 23/20 A2999 RMK A01 T02340200  RH  081%=      5-min Rain = 0
KDO1 060513Z 03001KT 23/20 A30 RMK A01 T02330200  RH  082%=      5-min Rain = 0
KDO1 060514Z 05002KT 23/20 A30 RMK A01 T02330200  RH  082%=      5-min Rain = 0
KDO1 060515Z 04003KT 23/20 A30 RMK A01 T02330200  RH  082%=      5-min Rain = 0
KDO1 060516Z 05003KT 23/20 A30 RMK A01 T02330200  RH  082%=      5-min Rain = 0
KDO1 060517Z 05003KT 23/20 A30 RMK A01 T02330201  RH  082%=      5-min Rain = 0
KDO1 060518Z 06003KT 23/20 A30 RMK A01 T02330201  RH  082%=      5-min Rain = 0
KDO1 060519Z 06003KT 23/20 A30 RMK A01 T02330200  RH  082%=      5-min Rain = 0
KDO1 060520Z 07003KT 23/20 A30 RMK A01 T02330201  RH  082%=      5-min Rain = 0
KDO1 060521Z 07003KT 23/20 A30 RMK A01 T02330201  RH  083%=      5-min Rain = 0
KDO1 060522Z 08003KT 23/20 A30 RMK A01 T02320201  RH  083%=      5-min Rain = 0
KDO1 060523Z 08003KT 23/20 A30 RMK A01 T02320201  RH  083%=      5-min Rain = 0
KDO1 060524Z 09003KT 23/20 A30 RMK A01 T02320201  RH  083%=      5-min Rain = 0
KDO1 060525Z 10003KT 23/20 A30 RMK A01 T02320201  RH  083%=      5-min Rain = 0
KDO1 060526Z 11003KT 23/20 A30 RMK A01 T02320201  RH  083%=      5-min Rain = 0
KDO1 060527Z 12002KT 23/20 A30 RMK A01 T02310201  RH  083%=      5-min Rain = 0
KDO1 060528Z 12002KT 23/20 A30 RMK A01 T02310200  RH  083%=      5-min Rain = 0
KDO1 060529Z 13002KT 23/20 A30 RMK A01 T02310200  RH  083%=      5-min Rain = 0
KDO1 060530Z 14002KT 23/20 A3001 RMK A01 T02310200  RH  083%=      5-min Rain = 0
KDO1 060531Z 15002KT 23/20 A3001 RMK A01 T02300200  RH  083%=      5-min Rain = 0
KDO1 060532Z 15001KT 23/20 A3001 RMK A01 T02300200  RH  083%=      5-min Rain = 0
KDO1 060533Z 15001KT 23/20 A3001 RMK A01 T02300200  RH  083%=      5-min Rain = 0
KDO1 060534Z 14001KT 23/20 A3001 RMK A01 T02300200  RH  083%=      5-min Rain = 0
KDO1 060535Z 13001KT 23/20 A3001 RMK A01 T02290200  RH  083%=      5-min Rain = 0
KDO1 060536Z 13001KT 23/20 A3001 RMK A01 T02290200  RH  084%=      5-min Rain = 0
KDO1 060537Z 12002KT 23/20 A3001 RMK A01 T02290200  RH  084%=      5-min Rain = 0
KDO1 060538Z 14002KT 23/20 A3001 RMK A01 T02290200  RH  084%=      5-min Rain = 0
KDO1 060539Z 14002KT 23/20 A3001 RMK A01 T02290200  RH  084%=      5-min Rain = 0
KDO1 060540Z 14001KT 23/20 A3001 RMK A01 T02290200  RH  084%=      5-min Rain = 0
KDO1 060541Z 15000KT 23/20 A3001 RMK A01 T02290200  RH  084%=      5-min Rain = 0
KDO1 060542Z 15000KT 23/20 A3001 RMK A01 T02280199  RH  084%=      5-min Rain = 0
KDO1 060543Z 18000KT 23/20 A3001 RMK A01 T02280199  RH  083%=      5-min Rain = 0
KDO1 060544Z 15001KT 23/20 A3001 RMK A01 T02270198  RH  084%=      5-min Rain = 0
KDO1 060545Z 15001KT 23/20 A3001 RMK A01 T02270199  RH  084%=      5-min Rain = 0
KDO1 060546Z 16002KT 23/20 A3001 RMK A01 T02270199  RH  084%=      5-min Rain = 0
KDO1 060547Z 15002KT 23/20 A3001 RMK A01 T02270200  RH  085%=      5-min Rain = 0
KDO1 060548Z 18002KT 23/20 A3001 RMK A01 T02270199  RH  084%=      5-min Rain = 0
KDO1 060549Z 17003KT 23/20 A3001 RMK A01 T02270199  RH  084%=      5-min Rain = 0
KDO1 060550Z 19001KT 23/20 A3001 RMK A01 T02270200  RH  085%=      5-min Rain = 0
KDO1 060551Z 14003KT 23/20 A30 RMK A01 T02270200  RH  085%=      5-min Rain = 0
KDO1 060552Z 12003KT 23/20 A30 RMK A01 T02270203  RH  086%=      5-min Rain = 0
KDO1 060553Z 11002KT 23/20 A30 RMK A01 T02280204  RH  086%=      5-min Rain = 0
KDO1 060554Z 10002KT 23/20 A30 RMK A01 T02290203  RH  086%=      5-min Rain = 0
KDO1 060555Z 06001KT 23/20 A30 RMK A01 T02290202  RH  085%=      5-min Rain = 0
KDO1 060556Z 07001KT 23/20 A30 RMK A01 T02290203  RH  085%=      5-min Rain = 0
KDO1 060557Z 07002KT 23/20 A30 RMK A01 T02290202  RH  085%=      5-min Rain = 0
KDO1 060558Z 07003KT 23/20 A30 RMK A01 T02290202  RH  085%=      5-min Rain = 0
KDO1 060559Z 06003KT 23/20 A30 RMK A01 T02290202  RH  085%=      5-min Rain = 0
KDO1 060600Z 09002KT 23/20 A3001 RMK A01 T02280202  RH  085%=      5-min Rain = 0
KDO1 060601Z 08003KT 23/20 A3001 RMK A01 T02290203  RH  085%=      5-min Rain = 0
KDO1 060602Z 08003KT 23/20 A3001 RMK A01 T02280202  RH  085%=      5-min Rain = 0
KDO1 060603Z 08002KT 23/20 A3001 RMK A01 T02280202  RH  085%=      5-min Rain = 0
KDO1 060604Z 09003KT 23/20 A3001 RMK A01 T02280202  RH  086%=      5-min Rain = 0
KDO1 060605Z 08003KT 23/20 A3001 RMK A01 T02280203  RH  086%=      5-min Rain = 0
KDO1 060606Z 07002KT 23/20 A3001 RMK A01 T02280203  RH  086%=      5-min Rain = 0
KDO1 060607Z 06003KT 23/20 A3001 RMK A01 T02280203  RH  086%=      5-min Rain = 0
KDO1 060608Z 05002KT 23/20 A3001 RMK A01 T02280203  RH  086%=      5-min Rain = 0
KDO1 060609Z 04003KT 23/20 A3001 RMK A01 T02280204  RH  086%=      5-min Rain = 0
KDO1 060610Z 04003KT 23/20 A3001 RMK A01 T02280203  RH  086%=      5-min Rain = 0
KDO1 060611Z 04003KT 23/20 A3001 RMK A01 T02280203  RH  086%=      5-min Rain = 0
KDO1 060612Z 04003KT 23/20 A3001 RMK A01 T02280203  RH  086%=      5-min Rain = 0
KDO1 060613Z 05003KT 23/20 A3001 RMK A01 T02280203  RH  086%=      5-min Rain = 0
KDO1 060614Z 06003KT 23/20 A3001 RMK A01 T02280203  RH  086%=      5-min Rain = 0
KDO1 060615Z 06003KT 23/20 A3001 RMK A01 T02280203  RH  086%=      5-min Rain = 0
KDO1 060616Z 06002KT 23/20 A3001 RMK A01 T02280203  RH  086%=      5-min Rain = 0
KDO1 060617Z 06002KT 23/20 A3001 RMK A01 T02280203  RH  086%=      5-min Rain = 0
KDO1 060618Z 06002KT 23/20 A3001 RMK A01 T02280204  RH  086%=      5-min Rain = 0
KDO1 060619Z 06002KT 23/20 A3001 RMK A01 T02280203  RH  086%=      5-min Rain = 0
KDO1 060620Z 05002KT 23/20 A3001 RMK A01 T02280203  RH  086%=      5-min Rain = 0
KDO1 060621Z 05002KT 23/20 A3001 RMK A01 T02280203  RH  086%=      5-min Rain = 0
KDO1 060622Z 05003KT 23/20 A3001 RMK A01 T02280202  RH  086%=      5-min Rain = 0
KDO1 060623Z 05002KT 23/20 A3001 RMK A01 T02270202  RH  086%=      5-min Rain = 0
KDO1 060624Z 05003KT 23/20 A3001 RMK A01 T02270202  RH  086%=      5-min Rain = 0
KDO1 060625Z 05003KT 23/20 A3001 RMK A01 T02270202  RH  086%=      5-min Rain = 0
KDO1 060626Z 05002KT 23/20 A3001 RMK A01 T02270202  RH  086%=      5-min Rain = 0
KDO1 060627Z 06002KT 23/20 A3001 RMK A01 T02270202  RH  086%=      5-min Rain = 0
KDO1 060628Z 06002KT 23/20 A3001 RMK A01 T02260202  RH  086%=      5-min Rain = 0
KDO1 060629Z 06002KT 23/20 A3001 RMK A01 T02270202  RH  086%=      5-min Rain = 0
KDO1 060630Z 06002KT 23/20 A3001 RMK A01 T02260202  RH  086%=      5-min Rain = 0
KDO1 060631Z 06003KT 23/20 A3001 RMK A01 T02260201  RH  086%=      5-min Rain = 0
KDO1 060632Z 05003KT 23/20 A3001 RMK A01 T02260202  RH  086%=      5-min Rain = 0
KDO1 060633Z 05003KT 23/20 A3001 RMK A01 T02260202  RH  086%=      5-min Rain = 0
KDO1 060634Z 05003KT 23/20 A3001 RMK A01 T02250201  RH  086%=      5-min Rain = 0
KDO1 060635Z 05004KT 23/20 A3001 RMK A01 T02260201  RH  086%=      5-min Rain = 0
KDO1 060636Z 04004KT 23/20 A3001 RMK A01 T02250201  RH  086%=      5-min Rain = 0
KDO1 060637Z 04004KT 23/20 A30 RMK A01 T02260202  RH  086%=      5-min Rain = 0
KDO1 060638Z 04004KT 23/20 A30 RMK A01 T02250201  RH  086%=      5-min Rain = 0
KDO1 060639Z 04004KT 23/20 A30 RMK A01 T02250202  RH  087%=      5-min Rain = 0
KDO1 060640Z 04004KT 23/20 A30 RMK A01 T02250202  RH  087%=      5-min Rain = 0
KDO1 060641Z 03003KT 23/20 A30 RMK A01 T02250202  RH  087%=      5-min Rain = 0
KDO1 060642Z 04003KT 23/20 A30 RMK A01 T02250202  RH  087%=      5-min Rain = 0
KDO1 060643Z 04003KT 23/20 A30 RMK A01 T02250202  RH  086%=      5-min Rain = 0
KDO1 060644Z 04003KT 23/20 A30 RMK A01 T02250202  RH  087%=      5-min Rain = 0
KDO1 060645Z 04003KT 23/20 A30 RMK A01 T02250202  RH  087%=      5-min Rain = 0
KDO1 060646Z 04003KT 23/20 A30 RMK A01 T02260202  RH  087%=      5-min Rain = 0
KDO1 060647Z 04003KT 23/20 A30 RMK A01 T02250202  RH  087%=      5-min Rain = 0
KDO1 060648Z 04003KT 23/20 A30 RMK A01 T02250202  RH  087%=      5-min Rain = 0
KDO1 060649Z 03003KT 23/20 A30 RMK A01 T02250202  RH  087%=      5-min Rain = 0
KDO1 060650Z 04003KT 23/20 A30 RMK A01 T02250202  RH  087%=      5-min Rain = 0
KDO1 060651Z 04003KT 22/20 A30 RMK A01 T02240202  RH  087%=      5-min Rain = 0
KDO1 060652Z 04003KT 22/20 A30 RMK A01 T02240202  RH  087%=      5-min Rain = 0
KDO1 060653Z 03003KT 22/20 A30 RMK A01 T02240202  RH  087%=      5-min Rain = 0
KDO1 060654Z 03003KT 22/20 A30 RMK A01 T02230202  RH  087%=      5-min Rain = 0
KDO1 060655Z 03004KT 22/20 A30 RMK A01 T02230201  RH  087%=      5-min Rain = 0
KDO1 060656Z 03004KT 22/20 A30 RMK A01 T02230201  RH  088%=      5-min Rain = 0
KDO1 060657Z 03004KT 22/20 A30 RMK A01 T02220202  RH  088%=      5-min Rain = 0
KDO1 060658Z 03003KT 22/20 A30 RMK A01 T02220202  RH  088%=      5-min Rain = 0
KDO1 060659Z 03003KT 22/20 A30 RMK A01 T02220203  RH  089%=      5-min Rain = 0
KDO1 060700Z 03003KT 22/20 A2999 RMK A01 T02220203  RH  089%=      5-min Rain = 0
KDO1 060701Z 03003KT 22/20 A2999 RMK A01 T02220204  RH  089%=      5-min Rain = 0
KDO1 060702Z 03003KT 22/20 A2999 RMK A01 T02220204  RH  089%=      5-min Rain = 0
KDO1 060703Z 03003KT 22/20 A2999 RMK A01 T02220203  RH  089%=      5-min Rain = 0
KDO1 060704Z 03002KT 22/20 A2999 RMK A01 T02220204  RH  089%=      5-min Rain = 0
KDO1 060705Z 03002KT 22/20 A30 RMK A01 T02220204  RH  089%=      5-min Rain = 0
KDO1 060706Z 03002KT 22/20 A30 RMK A01 T02220204  RH  089%=      5-min Rain = 0
KDO1 060707Z 03001KT 22/20 A30 RMK A01 T02220202  RH  088%=      5-min Rain = 0
KDO1 060708Z 03001KT 22/20 A30 RMK A01 T02220202  RH  088%=      5-min Rain = 0
KDO1 060709Z 02000KT 22/20 A30 RMK A01 T02210201  RH  088%=      5-min Rain = 0
KDO1 060710Z 02000KT 22/20 A2999 RMK A01 T02210201  RH  089%=      5-min Rain = 0
KDO1 060711Z 36000KT 22/20 A2999 RMK A01 T02200201  RH  089%=      5-min Rain = 0
KDO1 060712Z 36001KT 22/20 A2999 RMK A01 T02200201  RH  089%=      5-min Rain = 0
KDO1 060713Z 36001KT 22/20 A2999 RMK A01 T02190201  RH  089%=      5-min Rain = 0
KDO1 060714Z 35002KT 22/20 A2999 RMK A01 T02190201  RH  089%=      5-min Rain = 0
KDO1 060715Z 35002KT 22/20 A2999 RMK A01 T02190201  RH  089%=      5-min Rain = 0
KDO1 060716Z 36002KT 22/20 A2999 RMK A01 T02180200  RH  089%=      5-min Rain = 0
KDO1 060717Z 00002KT 22/20 A2999 RMK A01 T02180200  RH  090%=      5-min Rain = 0
KDO1 060718Z 35002KT 22/20 A2999 RMK A01 T02180201  RH  090%=      5-min Rain = 0
KDO1 060719Z 35003KT 22/20 A2999 RMK A01 T02180201  RH  090%=      5-min Rain = 0
KDO1 060720Z 34003KT 22/20 A2999 RMK A01 T02180201  RH  090%=      5-min Rain = 0
KDO1 060721Z 35003KT 22/20 A2999 RMK A01 T02180201  RH  090%=      5-min Rain = 0
KDO1 060722Z 35004KT 22/20 A2999 RMK A01 T02180201  RH  090%=      5-min Rain = 0
KDO1 060723Z 35004KT 22/20 A2999 RMK A01 T02180200  RH  090%=      5-min Rain = 0
KDO1 060724Z 35003KT 22/20 A2999 RMK A01 T02170200  RH  090%=      5-min Rain = 0
KDO1 060725Z 35003KT 22/20 A2999 RMK A01 T02170201  RH  090%=      5-min Rain = 0
KDO1 060726Z 35003KT 22/20 A2999 RMK A01 T02170201  RH  090%=      5-min Rain = 0
KDO1 060727Z 35003KT 22/20 A2999 RMK A01 T02170202  RH  091%=      5-min Rain = 0
KDO1 060728Z 35003KT 22/20 A2999 RMK A01 T02170201  RH  091%=      5-min Rain = 0
KDO1 060729Z 36003KT 22/20 A2999 RMK A01 T02180202  RH  091%=      5-min Rain = 0
KDO1 060730Z 00003KT 22/20 A2998 RMK A01 T02180202  RH  091%=      5-min Rain = 0
KDO1 060731Z 01004KT 22/20 A2998 RMK A01 T02180202  RH  090%=      5-min Rain = 0
KDO1 060732Z 01003KT 22/20 A2998 RMK A01 T02190203  RH  091%=      5-min Rain = 0
KDO1 060733Z 01003KT 22/20 A2998 RMK A01 T02190203  RH  090%=      5-min Rain = 0
KDO1 060734Z 01003KT 22/20 A2998 RMK A01 T02200203  RH  090%=      5-min Rain = 0
KDO1 060735Z 01003KT 22/20 A2998 RMK A01 T02190203  RH  090%=      5-min Rain = 0
KDO1 060736Z 01003KT 22/20 A2998 RMK A01 T02200203  RH  090%=      5-min Rain = 0
KDO1 060737Z 01004KT 22/20 A2998 RMK A01 T02200203  RH  090%=      5-min Rain = 0
KDO1 060738Z 00004KT 22/20 A2998 RMK A01 T02200203  RH  090%=      5-min Rain = 0
KDO1 060739Z 01004KT 22/20 A2998 RMK A01 T02200203  RH  090%=      5-min Rain = 0
KDO1 060740Z 00004KT 22/20 A2998 RMK A01 T02190203  RH  090%=      5-min Rain = 0
KDO1 060741Z 00004KT 22/20 A2998 RMK A01 T02200203  RH  090%=      5-min Rain = 0
KDO1 060742Z 36005KT 22/20 A2998 RMK A01 T02190203  RH  090%=      5-min Rain = 0
KDO1 060743Z 36005KT 22/20 A2998 RMK A01 T02190203  RH  091%=      5-min Rain = 0
KDO1 060744Z 36005KT 22/20 A2998 RMK A01 T02190203  RH  091%=      5-min Rain = 0
KDO1 060745Z 35005KT 22/20 A2998 RMK A01 T02190204  RH  091%=      5-min Rain = 0
KDO1 060746Z 35005KT 22/20 A2998 RMK A01 T02180204  RH  091%=      5-min Rain = 0
KDO1 060747Z 36005KT 22/20 A2998 RMK A01 T02180204  RH  091%=      5-min Rain = 0
KDO1 060748Z 36005KT 22/20 A2998 RMK A01 T02180204  RH  092%=      5-min Rain = 0
KDO1 060749Z 36006KT 22/20 A2998 RMK A01 T02170204  RH  092%=      5-min Rain = 0
KDO1 060750Z 36006KT 22/20 A2998 RMK A01 T02170204  RH  092%=      5-min Rain = 0
KDO1 060751Z 36005KT 22/20 A2998 RMK A01 T02160204  RH  093%=      5-min Rain = 0
KDO1 060752Z 36005KT 22/20 A2998 RMK A01 T02160204  RH  093%=      5-min Rain = 0
KDO1 060753Z 35005KT 22/20 A2998 RMK A01 T02160204  RH  093%=      5-min Rain = 0
KDO1 060754Z 36004KT 22/20 A2998 RMK A01 T02160204  RH  093%=      5-min Rain = 0
KDO1 060755Z 35005KT 22/20 A2998 RMK A01 T02160204  RH  093%=      5-min Rain = 0
KDO1 060756Z 36004KT 22/20 A2998 RMK A01 T02160204  RH  093%=      5-min Rain = 0
KDO1 060757Z 35005KT 22/20 A2998 RMK A01 T02150204  RH  093%=      5-min Rain = 0
KDO1 060758Z 35005KT 22/20 A2998 RMK A01 T02160204  RH  093%=      5-min Rain = 0
KDO1 060759Z 35004KT 22/21 A2998 RMK A01 T02160205  RH  094%=      5-min Rain = 0
KDO1 060800Z 35005KT 22/21 A2998 RMK A01 T02160205  RH  094%=      5-min Rain = 0
KDO1 060801Z 35005KT 22/21 A2998 RMK A01 T02150205  RH  094%=      5-min Rain = 0
KDO1 060802Z 34004KT 22/21 A2998 RMK A01 T02150205  RH  094%=      5-min Rain = 0
KDO1 060803Z 35004KT 22/21 A2998 RMK A01 T02150205  RH  094%=      5-min Rain = 0
KDO1 060804Z 35004KT 21/21 A2998 RMK A01 T02140205  RH  094%=      5-min Rain = 0
KDO1 060805Z 35004KT 22/21 A2998 RMK A01 T02150205  RH  094%=      5-min Rain = 0
KDO1 060806Z 35004KT 22/21 A2998 RMK A01 T02150205  RH  094%=      5-min Rain = 0
KDO1 060807Z 35004KT 21/21 A2998 RMK A01 T02140205  RH  094%=      5-min Rain = 0
KDO1 060808Z 35004KT 22/21 A2998 RMK A01 T02150205  RH  094%=      5-min Rain = 0
KDO1 060809Z 34003KT 22/21 A2998 RMK A01 T02150205  RH  094%=      5-min Rain = 0
KDO1 060810Z 34003KT 21/21 A2998 RMK A01 T02140205  RH  094%=      5-min Rain = 0
KDO1 060811Z 35004KT 21/21 A2998 RMK A01 T02140205  RH  095%=      5-min Rain = 0
KDO1 060812Z 35003KT 21/21 A2998 RMK A01 T02140206  RH  095%=      5-min Rain = 0
KDO1 060813Z 34003KT 22/21 A2998 RMK A01 T02150206  RH  095%=      5-min Rain = 0
KDO1 060814Z 34003KT 22/21 A2998 RMK A01 T02150206  RH  095%=      5-min Rain = 0
KDO1 060815Z 34003KT 22/21 A2998 RMK A01 T02150206  RH  095%=      5-min Rain = 0
KDO1 060816Z 34003KT 21/21 A2999 RMK A01 T02140206  RH  095%=      5-min Rain = 0
KDO1 060817Z 33003KT 21/21 A2999 RMK A01 T02140206  RH  095%=      5-min Rain = 0
KDO1 060818Z 32003KT 21/21 A2999 RMK A01 T02140205  RH  095%=      5-min Rain = 0
KDO1 060819Z 31002KT 21/21 A2999 RMK A01 T02140206  RH  095%=      5-min Rain = 0
KDO1 060820Z 30002KT 21/21 A2999 RMK A01 T02130206  RH  095%=      5-min Rain = 0
KDO1 060821Z 29001KT 21/21 A2999 RMK A01 T02130206  RH  096%=      5-min Rain = 0
KDO1 060822Z 29002KT 21/21 A2999 RMK A01 T02130206  RH  096%=      5-min Rain = 0
KDO1 060823Z 29002KT 21/21 A2999 RMK A01 T02130206  RH  096%=      5-min Rain = 0
KDO1 060824Z 29002KT 21/21 A2999 RMK A01 T02130206  RH  096%=      5-min Rain = 0
KDO1 060825Z 29002KT 21/21 A2999 RMK A01 T02130206  RH  096%=      5-min Rain = 0
KDO1 060826Z 29002KT 21/21 A2999 RMK A01 T02130207  RH  096%=      5-min Rain = 0
KDO1 060827Z 28001KT 21/21 A2999 RMK A01 T02140207  RH  096%=      5-min Rain = 0
KDO1 060828Z 28001KT 21/21 A2998 RMK A01 T02140207  RH  096%=      5-min Rain = 0
KDO1 060829Z 30001KT 21/21 A2998 RMK A01 T02140206  RH  096%=      5-min Rain = 0
KDO1 060830Z 31001KT 21/21 A2998 RMK A01 T02140206  RH  096%=      5-min Rain = 0
KDO1 060831Z 31002KT 21/21 A2998 RMK A01 T02140207  RH  096%=      5-min Rain = 0
KDO1 060832Z 32002KT 21/21 A2998 RMK A01 T02140206  RH  095%=      5-min Rain = 0
KDO1 060833Z 34002KT 21/21 A2998 RMK A01 T02140207  RH  096%=      5-min Rain = 0
KDO1 060834Z 34003KT 21/21 A2998 RMK A01 T02140207  RH  096%=      5-min Rain = 0
KDO1 060835Z 34003KT 21/21 A2998 RMK A01 T02140207  RH  096%=      5-min Rain = 0
KDO1 060836Z 34003KT 21/21 A2998 RMK A01 T02140206  RH  095%=      5-min Rain = 0
KDO1 060837Z 34003KT 21/21 A2998 RMK A01 T02140207  RH  096%=      5-min Rain = 0
KDO1 060838Z 34003KT 21/21 A2998 RMK A01 T02140206  RH  096%=      5-min Rain = 0
KDO1 060839Z 34003KT 21/21 A2998 RMK A01 T02130206  RH  095%=      5-min Rain = 0
KDO1 060840Z 34004KT 21/21 A2998 RMK A01 T02130206  RH  096%=      5-min Rain = 0
KDO1 060841Z 34004KT 21/21 A2998 RMK A01 T02130206  RH  096%=      5-min Rain = 0
KDO1 060842Z 33003KT 21/21 A2998 RMK A01 T02120206  RH  096%=      5-min Rain = 0
KDO1 060843Z 34003KT 21/21 A2998 RMK A01 T02120206  RH  097%=      5-min Rain = 0
KDO1 060844Z 34004KT 21/21 A2998 RMK A01 T02120207  RH  097%=      5-min Rain = 0
KDO1 060845Z 34004KT 21/21 A2998 RMK A01 T02120207  RH  097%=      5-min Rain = 0
KDO1 060846Z 35004KT 21/21 A2998 RMK A01 T02110207  RH  097%=      5-min Rain = 0
KDO1 060847Z 35004KT 21/21 A2998 RMK A01 T02110208  RH  098%=      5-min Rain = 0
KDO1 060848Z 35004KT 21/21 A2998 RMK A01 T02110208  RH  098%=      5-min Rain = 0
KDO1 060849Z 35004KT 21/21 A2998 RMK A01 T02110209  RH  098%=      5-min Rain = 0
KDO1 060850Z 35005KT 21/21 A2998 RMK A01 T02110209  RH  099%=      5-min Rain = 0
KDO1 060851Z 35005KT 21/21 A2998 RMK A01 T02110209  RH  099%=      5-min Rain = 0
KDO1 060852Z 35005KT 21/21 A2998 RMK A01 T02110209  RH  099%=      5-min Rain = 0
KDO1 060853Z 35005KT 21/21 A2998 RMK A01 T02110209  RH  099%=      5-min Rain = 0
KDO1 060854Z 35006KT 21/21 A2998 RMK A01 T02110209  RH  099%=      5-min Rain = 0
KDO1 060855Z 35006KT 21/21 A2998 RMK A01 T02110209  RH  099%=      5-min Rain = 0
KDO1 060856Z 36005KT 21/21 A2998 RMK A01 T02110209  RH  099%=      5-min Rain = 0
KDO1 060857Z 35006KT 21/21 A2998 RMK A01 T02110209  RH  099%=      5-min Rain = 0
KDO1 060858Z 35005KT 21/21 A2998 RMK A01 T02110209  RH  099%=      5-min Rain = 0
KDO1 060859Z 35006KT 21/21 A2998 RMK A01 T02110209  RH  099%=      5-min Rain = 0
KDO1 060900Z 35005KT 21/21 A2998 RMK A01 T02110210  RH  099%=      5-min Rain = 0
KDO1 060901Z 35005KT 21/21 A2998 RMK A01 T02110210  RH  099%=      5-min Rain = 0
KDO1 060902Z 35004KT 21/21 A2998 RMK A01 T02110210  RH  099%=      5-min Rain = 0
KDO1 060903Z 35005KT 21/21 A2998 RMK A01 T02110210  RH  099%=      5-min Rain = 0
KDO1 060904Z 34004KT 21/21 A2998 RMK A01 T02120210  RH  099%=      5-min Rain = 0
KDO1 060905Z 34004KT 21/21 A2998 RMK A01 T02120210  RH  099%=      5-min Rain = 0
KDO1 060906Z 34004KT 21/21 A2998 RMK A01 T02120210  RH  099%=      5-min Rain = 0
KDO1 060907Z 34004KT 21/21 A2998 RMK A01 T02120210  RH  099%=      5-min Rain = 0
KDO1 060908Z 33004KT 21/21 A2998 RMK A01 T02120211  RH  099%=      5-min Rain = 0
KDO1 060909Z 34004KT 21/21 A2998 RMK A01 T02120211  RH  099%=      5-min Rain = 0
KDO1 060910Z 34004KT 21/21 A2998 RMK A01 T02120210  RH  099%=      5-min Rain = 0
KDO1 060911Z 34003KT 21/21 A2998 RMK A01 T02120210  RH  099%=      5-min Rain = 0
KDO1 060912Z 33004KT 21/21 A2998 RMK A01 T02120211  RH  099%=      5-min Rain = 0
KDO1 060913Z 33004KT 21/21 A2998 RMK A01 T02130211  RH  099%=      5-min Rain = 0
KDO1 060914Z 33004KT 21/21 A2998 RMK A01 T02130211  RH  099%=      5-min Rain = 0
KDO1 060915Z 33004KT 21/21 A2998 RMK A01 T02130211  RH  099%=      5-min Rain = 0
KDO1 060916Z 33003KT 21/21 A2998 RMK A01 T02130210  RH  099%=      5-min Rain = 0
KDO1 060917Z 32003KT 21/21 A2998 RMK A01 T02130211  RH  099%=      5-min Rain = 0
KDO1 060918Z 32004KT 21/21 A2998 RMK A01 T02130211  RH  099%=      5-min Rain = 0
KDO1 060919Z 32004KT 21/21 A2998 RMK A01 T02130211  RH  099%=      5-min Rain = 0
KDO1 060920Z 32004KT 21/21 A2998 RMK A01 T02130212  RH  099%=      5-min Rain = 0
KDO1 060921Z 32004KT 21/21 A2998 RMK A01 T02130211  RH  099%=      5-min Rain = 0
KDO1 060922Z 32003KT 21/21 A2998 RMK A01 T02130211  RH  099%=      5-min Rain = 0
KDO1 060923Z 32004KT 21/21 A2998 RMK A01 T02130211  RH  099%=      5-min Rain = 0
KDO1 060924Z 32004KT 21/21 A2998 RMK A01 T02130211  RH  099%=      5-min Rain = 0
KDO1 060925Z 33004KT 21/21 A2998 RMK A01 T02130211  RH  099%=      5-min Rain = 0
KDO1 060926Z 33004KT 21/21 A2998 RMK A01 T02130210  RH  098%=      5-min Rain = 0
KDO1 060927Z 33004KT 21/21 A2998 RMK A01 T02130210  RH  098%=      5-min Rain = 0
KDO1 060928Z 33005KT 21/21 A2998 RMK A01 T02130210  RH  098%=      5-min Rain = 0
KDO1 060929Z 33005KT 21/21 A2998 RMK A01 T02120210  RH  098%=      5-min Rain = 0
KDO1 060930Z 33004KT 21/21 A2998 RMK A01 T02120209  RH  098%=      5-min Rain = 0
KDO1 060931Z 34004KT 21/21 A2998 RMK A01 T02120209  RH  098%=      5-min Rain = 0
KDO1 060932Z 34005KT 21/21 A2998 RMK A01 T02120209  RH  098%=      5-min Rain = 0
KDO1 060933Z 34005KT 21/21 A2998 RMK A01 T02110209  RH  099%=      5-min Rain = 0
KDO1 060934Z 34004KT 21/21 A2998 RMK A01 T02110209  RH  099%=      5-min Rain = 0
KDO1 060935Z 35004KT 21/21 A2998 RMK A01 T02110209  RH  099%=      5-min Rain = 0
KDO1 060936Z 35004KT 21/21 A2998 RMK A01 T02110209  RH  099%=      5-min Rain = 0
KDO1 060937Z 35004KT 21/21 A2999 RMK A01 T02110209  RH  099%=      5-min Rain = 0
KDO1 060938Z 35005KT 21/21 A2999 RMK A01 T02110209  RH  099%=      5-min Rain = 0
KDO1 060939Z 34005KT 21/21 A2999 RMK A01 T02110210  RH  099%=      5-min Rain = 0
KDO1 060940Z 33004KT 21/21 A2999 RMK A01 T02100208  RH  099%=      5-min Rain = 0
KDO1 060941Z 32004KT 21/21 A2999 RMK A01 T02100208  RH  099%=      5-min Rain = 0
KDO1 060942Z 33004KT 21/21 A2999 RMK A01 T02100208  RH  099%=      5-min Rain = 0
KDO1 060943Z 33005KT 21/21 A2999 RMK A01 T02100208  RH  099%=      5-min Rain = 0
KDO1 060944Z 33005KT 21/21 A2999 RMK A01 T02090208  RH  099%=      5-min Rain = 0
KDO1 060945Z 32004KT 21/21 A2999 RMK A01 T02090209  RH  099%=      5-min Rain = 0
KDO1 060946Z 31004KT 21/21 A2999 RMK A01 T02090209  RH  100%=      5-min Rain = 0
KDO1 060947Z 32004KT 21/21 A2999 RMK A01 T02090208  RH  100%=      5-min Rain = 0
KDO1 060948Z 32004KT 21/21 A2999 RMK A01 T02090208  RH  099%=      5-min Rain = 0
KDO1 060949Z 33004KT 21/21 A2999 RMK A01 T02090208  RH  099%=      5-min Rain = 0
KDO1 060950Z 33004KT 21/21 A2999 RMK A01 T02080207  RH  099%=      5-min Rain = 0
KDO1 060951Z 33005KT 21/21 A2999 RMK A01 T02080207  RH  099%=      5-min Rain = 0
KDO1 060952Z 33004KT 21/21 A2999 RMK A01 T02080207  RH  099%=      5-min Rain = 0
KDO1 060953Z 33004KT 21/21 A2999 RMK A01 T02080207  RH  099%=      5-min Rain = 0
KDO1 060954Z 33005KT 21/21 A2999 RMK A01 T02080207  RH  100%=      5-min Rain = 0
KDO1 060955Z 33004KT 21/21 A2999 RMK A01 T02080207  RH  100%=      5-min Rain = 0
KDO1 060956Z 32003KT 21/21 A2999 RMK A01 T02070207  RH  100%=      5-min Rain = 0
KDO1 060957Z 31003KT 21/21 A2999 RMK A01 T02070207  RH  100%=      5-min Rain = 0
KDO1 060958Z 31003KT 21/21 A2999 RMK A01 T02070206  RH  100%=      5-min Rain = 0
KDO1 060959Z 30004KT 21/21 A2999 RMK A01 T02070207  RH  100%=      5-min Rain = 0
KDO1 061000Z 28003KT 21/21 A2999 RMK A01 T02070207  RH  100%=      5-min Rain = 0
KDO1 061001Z 26005KT 21/21 A2999 RMK A01 T02070207  RH  100%=      5-min Rain = 0
KDO1 061002Z 25006KT 21/21 A2999 RMK A01 T02060205  RH  099%=      5-min Rain = 0
KDO1 061003Z 25005KT 21/21 A2999 RMK A01 T02060205  RH  099%=      5-min Rain = 0
KDO1 061004Z 26006KT 21/20 A2999 RMK A01 T02050204  RH  099%=      5-min Rain = 0
KDO1 061005Z 28006KT 20/20 A2999 RMK A01 T02040204  RH  100%=      5-min Rain = 0
KDO1 061006Z 29005KT 20/20 A2999 RMK A01 T02040204  RH  100%=      5-min Rain = 0
KDO1 061007Z 30004KT 20/20 A2999 RMK A01 T02040204  RH  100%=      5-min Rain = 0
KDO1 061008Z 30004KT 20/21 A2999 RMK A01 T02040205  RH  100%=      5-min Rain = 0
KDO1 061009Z 30004KT 20/20 A2999 RMK A01 T02040204  RH  100%=      5-min Rain = 0
KDO1 061010Z 29004KT 21/21 A2999 RMK A01 T02050205  RH  100%=      5-min Rain = 0
KDO1 061011Z 29004KT 20/20 A2999 RMK A01 T02040204  RH  100%=      5-min Rain = 0
KDO1 061012Z 29005KT 20/20 A2999 RMK A01 T02040204  RH  100%=      5-min Rain = 0
KDO1 061013Z 28005KT 20/20 A2999 RMK A01 T02040204  RH  100%=      5-min Rain = 0
KDO1 061014Z 29005KT 20/20 A2999 RMK A01 T02040204  RH  100%=      5-min Rain = 0
KDO1 061015Z 29005KT 20/20 A2999 RMK A01 T02030203  RH  100%=      5-min Rain = 0
KDO1 061016Z 29004KT 20/20 A2999 RMK A01 T02030203  RH  100%=      5-min Rain = 0
KDO1 061017Z 30005KT 20/20 A2999 RMK A01 T02020202  RH  100%=      5-min Rain = 0
KDO1 061018Z 30005KT 20/20 A2999 RMK A01 T02020202  RH  100%=      5-min Rain = 0
KDO1 061019Z 30005KT 20/20 A2999 RMK A01 T02020202  RH  100%=      5-min Rain = 0
KDO1 061020Z 30005KT 20/20 A2999 RMK A01 T02010201  RH  100%=      5-min Rain = 0
KDO1 061021Z 30005KT 20/20 A2999 RMK A01 T02010201  RH  100%=      5-min Rain = 0
KDO1 061022Z 31005KT 20/20 A2999 RMK A01 T02010201  RH  100%=      5-min Rain = 0
KDO1 061023Z 31004KT 20/20 A2999 RMK A01 T02010202  RH  100%=      5-min Rain = 0
KDO1 061024Z 30004KT 20/20 A2999 RMK A01 T02010201  RH  100%=      5-min Rain = 0
KDO1 061025Z 30004KT 20/20 A2999 RMK A01 T02010201  RH  100%=      5-min Rain = 0
KDO1 061026Z 31004KT 20/20 A2999 RMK A01 T02020202  RH  100%=      5-min Rain = 0
KDO1 061027Z 31004KT 20/20 A2999 RMK A01 T02020202  RH  100%=      5-min Rain = 0
KDO1 061028Z 31004KT 20/20 A2999 RMK A01 T02020202  RH  100%=      5-min Rain = 0
KDO1 061029Z 31003KT 20/20 A2999 RMK A01 T02020202  RH  100%=      5-min Rain = 0
KDO1 061030Z 31003KT 20/20 A2999 RMK A01 T02020202  RH  100%=      5-min Rain = 0
KDO1 061031Z 31004KT 20/20 A2999 RMK A01 T02020202  RH  100%=      5-min Rain = 0
KDO1 061032Z 32004KT 20/20 A30 RMK A01 T02020202  RH  100%=      5-min Rain = 0
KDO1 061033Z 32004KT 20/20 A30 RMK A01 T02020202  RH  100%=      5-min Rain = 0
KDO1 061034Z 32005KT 20/20 A30 RMK A01 T02020202  RH  100%=      5-min Rain = 0
KDO1 061035Z 32005KT 20/20 A30 RMK A01 T02030203  RH  100%=      5-min Rain = 0
KDO1 061036Z 32005KT 20/20 A30 RMK A01 T02040204  RH  100%=      5-min Rain = 0
KDO1 061037Z 32004KT 20/21 A30 RMK A01 T02040205  RH  100%=      5-min Rain = 0
KDO1 061038Z 33004KT 21/21 A30 RMK A01 T02050205  RH  100%=      5-min Rain = 0
KDO1 061039Z 33005KT 21/21 A30 RMK A01 T02050205  RH  100%=      5-min Rain = 0
KDO1 061040Z 33005KT 21/21 A30 RMK A01 T02060206  RH  100%=      5-min Rain = 0
KDO1 061041Z 33005KT 21/21 A30 RMK A01 T02060206  RH  100%=      5-min Rain = 0
KDO1 061042Z 33005KT 21/21 A30 RMK A01 T02060206  RH  100%=      5-min Rain = 0
KDO1 061043Z 33005KT 21/21 A30 RMK A01 T02060206  RH  100%=      5-min Rain = 0
KDO1 061044Z 33004KT 21/21 A30 RMK A01 T02060206  RH  100%=      5-min Rain = 0
KDO1 061045Z 33005KT 21/21 A30 RMK A01 T02060206  RH  100%=      5-min Rain = 0
KDO1 061046Z 33005KT 21/21 A30 RMK A01 T02060206  RH  100%=      5-min Rain = 0
KDO1 061047Z 34005KT 21/21 A30 RMK A01 T02060206  RH  100%=      5-min Rain = 0
KDO1 061048Z 34005KT 21/21 A30 RMK A01 T02070207  RH  100%=      5-min Rain = 0
KDO1 061049Z 34005KT 21/21 A30 RMK A01 T02070207  RH  100%=      5-min Rain = 0
KDO1 061050Z 35005KT 21/21 A30 RMK A01 T02070207  RH  100%=      5-min Rain = 0
KDO1 061051Z 35005KT 21/21 A30 RMK A01 T02080207  RH  099%=      5-min Rain = 0
KDO1 061052Z 35005KT 21/21 A30 RMK A01 T02080207  RH  099%=      5-min Rain = 0
KDO1 061053Z 36004KT 21/21 A30 RMK A01 T02070206  RH  099%=      5-min Rain = 0
KDO1 061054Z 35004KT 21/21 A30 RMK A01 T02080206  RH  099%=      5-min Rain = 0
KDO1 061055Z 36004KT 21/21 A30 RMK A01 T02080206  RH  099%=      5-min Rain = 0
KDO1 061056Z 36004KT 21/21 A30 RMK A01 T02080206  RH  099%=      5-min Rain = 0
KDO1 061057Z 35005KT 21/21 A30 RMK A01 T02080206  RH  099%=      5-min Rain = 0
KDO1 061058Z 35004KT 21/21 A30 RMK A01 T02080207  RH  099%=      5-min Rain = 0
KDO1 061059Z 35004KT 21/21 A30 RMK A01 T02080207  RH  099%=      5-min Rain = 0
KDO1 061100Z 34004KT 21/21 A30 RMK A01 T02080207  RH  099%=      5-min Rain = 0
KDO1 061101Z 34004KT 21/21 A30 RMK A01 T02070207  RH  099%=      5-min Rain = 0
KDO1 061102Z 35004KT 21/21 A30 RMK A01 T02080207  RH  099%=      5-min Rain = 0
KDO1 061103Z 35004KT 21/21 A30 RMK A01 T02080206  RH  099%=      5-min Rain = 0
KDO1 061104Z 35004KT 21/21 A30 RMK A01 T02080207  RH  099%=      5-min Rain = 0
KDO1 061105Z 35003KT 21/21 A30 RMK A01 T02080207  RH  099%=      5-min Rain = 0
KDO1 061106Z 35003KT 21/21 A30 RMK A01 T02070207  RH  100%=      5-min Rain = 0
KDO1 061107Z 35004KT 21/21 A3001 RMK A01 T02070207  RH  100%=      5-min Rain = 0
KDO1 061108Z 35003KT 21/21 A3001 RMK A01 T02070207  RH  100%=      5-min Rain = 0
KDO1 061109Z 00003KT 21/21 A3001 RMK A01 T02070207  RH  100%=      5-min Rain = 0
KDO1 061110Z 36002KT 21/21 A3001 RMK A01 T02070207  RH  100%=      5-min Rain = 0
KDO1 061111Z 36002KT 21/21 A3001 RMK A01 T02070207  RH  100%=      5-min Rain = 0
KDO1 061112Z 02002KT 21/21 A3001 RMK A01 T02070207  RH  100%=      5-min Rain = 0
KDO1 061113Z 05002KT 21/21 A3001 RMK A01 T02060206  RH  100%=      5-min Rain = 0
KDO1 061114Z 04002KT 21/21 A3001 RMK A01 T02050205  RH  100%=      5-min Rain = 0
KDO1 061115Z 01003KT 21/21 A3001 RMK A01 T02050205  RH  100%=      5-min Rain = 0
KDO1 061116Z 01003KT 20/20 A3001 RMK A01 T02040204  RH  100%=      5-min Rain = 0
KDO1 061117Z 01003KT 20/20 A3001 RMK A01 T02030204  RH  100%=      5-min Rain = 0
KDO1 061118Z 01003KT 20/20 A3001 RMK A01 T02040204  RH  100%=      5-min Rain = 0
KDO1 061119Z 02002KT 20/20 A3001 RMK A01 T02040204  RH  100%=      5-min Rain = 0
KDO1 061120Z 03002KT 20/20 A3001 RMK A01 T02030203  RH  100%=      5-min Rain = 0
KDO1 061121Z 04002KT 20/20 A3001 RMK A01 T02030203  RH  100%=      5-min Rain = 0
KDO1 061122Z 04003KT 20/20 A3001 RMK A01 T02020202  RH  100%=      5-min Rain = 0
KDO1 061123Z 03003KT 20/20 A3001 RMK A01 T02020202  RH  100%=      5-min Rain = 0
KDO1 061124Z 02003KT 20/20 A3001 RMK A01 T02000201  RH  100%=      5-min Rain = 0
KDO1 061125Z 02003KT 20/20 A3001 RMK A01 T02000200  RH  100%=      5-min Rain = 0
KDO1 061126Z 01004KT 20/20 A3001 RMK A01 T02000200  RH  100%=      5-min Rain = 0
KDO1 061127Z 02003KT 20/20 A3001 RMK A01 T01990200  RH  100%=      5-min Rain = 0
KDO1 061128Z 03004KT 20/20 A3001 RMK A01 T01990200  RH  100%=      5-min Rain = 0
KDO1 061129Z 02004KT 20/20 A3001 RMK A01 T01990199  RH  100%=      5-min Rain = 0
KDO1 061130Z 01004KT 20/20 A3001 RMK A01 T01990199  RH  100%=      5-min Rain = 0
KDO1 061131Z 00005KT 20/20 A3001 RMK A01 T01990199  RH  100%=      5-min Rain = 0
KDO1 061132Z 00004KT 20/20 A3001 RMK A01 T01990199  RH  100%=      5-min Rain = 0
KDO1 061133Z 36004KT 20/20 A3001 RMK A01 T01980198  RH  100%=      5-min Rain = 0
KDO1 061134Z 36005KT 20/20 A3001 RMK A01 T01980199  RH  100%=      5-min Rain = 0
KDO1 061135Z 36005KT 20/20 A3001 RMK A01 T01990199  RH  100%=      5-min Rain = 0
KDO1 061136Z 35005KT 20/20 A3001 RMK A01 T01980198  RH  100%=      5-min Rain = 0
KDO1 061137Z 35005KT 20/20 A3001 RMK A01 T01990199  RH  100%=      5-min Rain = 0
KDO1 061138Z 36005KT 20/20 A3001 RMK A01 T01980199  RH  100%=      5-min Rain = 0
KDO1 061139Z 36005KT 20/20 A3001 RMK A01 T01980198  RH  100%=      5-min Rain = 0
KDO1 061140Z 00004KT 20/20 A3001 RMK A01 T01980198  RH  100%=      5-min Rain = 0
KDO1 061141Z 36004KT 20/20 A3001 RMK A01 T01980198  RH  100%=      5-min Rain = 0
KDO1 061142Z 01003KT 20/20 A3001 RMK A01 T01980198  RH  100%=      5-min Rain = 0
KDO1 061143Z 01003KT 20/20 A3001 RMK A01 T01980198  RH  100%=      5-min Rain = 0
KDO1 061144Z 01003KT 20/20 A3001 RMK A01 T01980198  RH  100%=      5-min Rain = 0
KDO1 061145Z 03002KT 20/20 A3001 RMK A01 T01980198  RH  100%=      5-min Rain = 0
KDO1 061146Z 03001KT 20/20 A3001 RMK A01 T01980198  RH  100%=      5-min Rain = 0
KDO1 061147Z 02001KT 20/20 A3001 RMK A01 T01980198  RH  100%=      5-min Rain = 0
KDO1 061148Z 01000KT 20/20 A3001 RMK A01 T01970197  RH  100%=      5-min Rain = 0
KDO1 061149Z 01001KT 20/20 A3001 RMK A01 T01970197  RH  100%=      5-min Rain = 0
KDO1 061150Z 01001KT 20/20 A3001 RMK A01 T01970197  RH  100%=      5-min Rain = 0
KDO1 061151Z 36002KT 20/20 A3001 RMK A01 T01970197  RH  100%=      5-min Rain = 0
KDO1 061152Z 35002KT 20/20 A3001 RMK A01 T01970197  RH  100%=      5-min Rain = 0
KDO1 061153Z 35002KT 20/20 A3001 RMK A01 T01970197  RH  100%=      5-min Rain = 0
KDO1 061154Z 35003KT 20/20 A3001 RMK A01 T01970197  RH  100%=      5-min Rain = 0
KDO1 061155Z 35003KT 20/20 A3001 RMK A01 T01970197  RH  100%=      5-min Rain = 0
KDO1 061156Z 34003KT 20/20 A3001 RMK A01 T01970197  RH  100%=      5-min Rain = 0
KDO1 061157Z 34003KT 20/20 A3001 RMK A01 T01970197  RH  100%=      5-min Rain = 0
KDO1 061158Z 34002KT 20/20 A3001 RMK A01 T01970197  RH  100%=      5-min Rain = 0
KDO1 061159Z 34002KT 20/20 A3001 RMK A01 T01970197  RH  100%=      5-min Rain = 0
KDO1 061200Z 34002KT 20/20 A3001 RMK A01 T01970197  RH  100%=      5-min Rain = 0
KDO1 061201Z 35001KT 20/20 A3001 RMK A01 T01970197  RH  100%=      5-min Rain = 0
KDO1 061202Z 35001KT 20/20 A3002 RMK A01 T01980198  RH  100%=      5-min Rain = 0
KDO1 061203Z 33001KT 20/20 A3001 RMK A01 T01980198  RH  100%=      5-min Rain = 0
KDO1 061204Z 32001KT 20/20 A3001 RMK A01 T01980199  RH  100%=      5-min Rain = 0
KDO1 061205Z 32001KT 20/20 A3001 RMK A01 T01990199  RH  100%=      5-min Rain = 0
KDO1 061206Z 30000KT 20/20 A3001 RMK A01 T01990199  RH  100%=      5-min Rain = 0
KDO1 061207Z 34000KT 20/20 A3001 RMK A01 T02000200  RH  100%=      5-min Rain = 0
KDO1 061208Z 34001KT 20/20 A3001 RMK A01 T02000200  RH  100%=      5-min Rain = 0
KDO1 061209Z 35001KT 20/20 A3001 RMK A01 T02000200  RH  100%=      5-min Rain = 0
KDO1 061210Z 36001KT 20/20 A3001 RMK A01 T02010201  RH  100%=      5-min Rain = 0
KDO1 061211Z 35002KT 20/20 A3002 RMK A01 T02010201  RH  100%=      5-min Rain = 0
KDO1 061212Z 35003KT 20/20 A3002 RMK A01 T02020202  RH  100%=      5-min Rain = 0
KDO1 061213Z 35004KT 20/20 A3002 RMK A01 T02030203  RH  100%=      5-min Rain = 0
KDO1 061214Z 35004KT 20/20 A3002 RMK A01 T02040204  RH  100%=      5-min Rain = 0
KDO1 061215Z 34004KT 21/21 A3002 RMK A01 T02050205  RH  100%=      5-min Rain = 0
KDO1 061216Z 35003KT 21/21 A3002 RMK A01 T02060205  RH  099%=      5-min Rain = 0
KDO1 061217Z 35003KT 21/21 A3002 RMK A01 T02070205  RH  099%=      5-min Rain = 0
KDO1 061218Z 35004KT 21/21 A3002 RMK A01 T02080205  RH  098%=      5-min Rain = 0
KDO1 061219Z 35004KT 21/21 A3002 RMK A01 T02080205  RH  098%=      5-min Rain = 0
KDO1 061220Z 36004KT 21/21 A3002 RMK A01 T02090205  RH  098%=      5-min Rain = 0
KDO1 061221Z 36004KT 21/21 A3002 RMK A01 T02100205  RH  097%=      5-min Rain = 0
KDO1 061222Z 35004KT 21/21 A3002 RMK A01 T02110205  RH  097%=      5-min Rain = 0
KDO1 061223Z 35004KT 21/21 A3002 RMK A01 T02120205  RH  096%=      5-min Rain = 0
KDO1 061224Z 34004KT 21/21 A3002 RMK A01 T02120205  RH  096%=      5-min Rain = 0
KDO1 061225Z 34003KT 21/21 A3002 RMK A01 T02120205  RH  095%=      5-min Rain = 0
KDO1 061226Z 34004KT 21/21 A3002 RMK A01 T02130205  RH  095%=      5-min Rain = 0
KDO1 061227Z 34005KT 21/21 A3002 RMK A01 T02140205  RH  095%=      5-min Rain = 0
KDO1 061228Z 34004KT 21/21 A3002 RMK A01 T02140205  RH  095%=      5-min Rain = 0
KDO1 061229Z 33003KT 21/21 A3002 RMK A01 T02140205  RH  095%=      5-min Rain = 0
KDO1 061230Z 33004KT 22/21 A3002 RMK A01 T02150206  RH  094%=      5-min Rain = 0
KDO1 061231Z 33003KT 22/21 A3002 RMK A01 T02160206  RH  094%=      5-min Rain = 0
KDO1 061232Z 32001KT 22/21 A3002 RMK A01 T02170206  RH  094%=      5-min Rain = 0
KDO1 061233Z 32002KT 22/21 A3002 RMK A01 T02170206  RH  093%=      5-min Rain = 0
KDO1 061234Z 32002KT 22/21 A3002 RMK A01 T02180207  RH  093%=      5-min Rain = 0
KDO1 061235Z 33003KT 22/21 A3002 RMK A01 T02190206  RH  093%=      5-min Rain = 0
KDO1 061236Z 33003KT 22/21 A3002 RMK A01 T02200206  RH  092%=      5-min Rain = 0
KDO1 061237Z 34003KT 22/21 A3002 RMK A01 T02210206  RH  091%=      5-min Rain = 0
KDO1 061238Z 34003KT 22/21 A3002 RMK A01 T02210206  RH  091%=      5-min Rain = 0
KDO1 061239Z 34002KT 22/21 A3002 RMK A01 T02210206  RH  091%=      5-min Rain = 0
KDO1 061240Z 33001KT 22/21 A3002 RMK A01 T02220206  RH  091%=      5-min Rain = 0
KDO1 061241Z 35001KT 22/21 A3002 RMK A01 T02230206  RH  091%=      5-min Rain = 0
KDO1 061242Z 35001KT 22/21 A3002 RMK A01 T02230206  RH  090%=      5-min Rain = 0
KDO1 061243Z 34003KT 22/21 A3002 RMK A01 T02240206  RH  089%=      5-min Rain = 0
KDO1 061244Z 36001KT 23/21 A3002 RMK A01 T02250205  RH  089%=      5-min Rain = 0
KDO1 061245Z 34001KT 23/21 A3002 RMK A01 T02250205  RH  089%=      5-min Rain = 0
KDO1 061246Z 33001KT 23/21 A3002 RMK A01 T02250205  RH  089%=      5-min Rain = 0
KDO1 061247Z 31002KT 23/21 A3002 RMK A01 T02260206  RH  088%=      5-min Rain = 0
KDO1 061248Z 33003KT 23/21 A3002 RMK A01 T02260206  RH  088%=      5-min Rain = 0
KDO1 061249Z 33004KT 23/21 A3002 RMK A01 T02260206  RH  088%=      5-min Rain = 0
KDO1 061250Z 34004KT 23/21 A3002 RMK A01 T02270206  RH  088%=      5-min Rain = 0
KDO1 061251Z 34003KT 23/21 A3002 RMK A01 T02270206  RH  088%=      5-min Rain = 0
KDO1 061252Z 32003KT 23/21 A3002 RMK A01 T02280206  RH  088%=      5-min Rain = 0
KDO1 061253Z 33004KT 23/21 A3002 RMK A01 T02280207  RH  088%=      5-min Rain = 0
KDO1 061254Z 33004KT 23/21 A3002 RMK A01 T02290206  RH  087%=      5-min Rain = 0
KDO1 061255Z 34004KT 23/21 A3002 RMK A01 T02300207  RH  087%=      5-min Rain = 0
KDO1 061256Z 35005KT 23/21 A3002 RMK A01 T02300207  RH  087%=      5-min Rain = 0
KDO1 061257Z 34004KT 23/21 A3002 RMK A01 T02310206  RH  086%=      5-min Rain = 0
KDO1 061258Z 34004KT 23/21 A3002 RMK A01 T02310207  RH  086%=      5-min Rain = 0
KDO1 061259Z 34005KT 23/21 A3002 RMK A01 T02320207  RH  086%=      5-min Rain = 0
KDO1 061300Z 35004KT 23/21 A3002 RMK A01 T02320207  RH  085%=      5-min Rain = 0
KDO1 061301Z 35002KT 23/21 A3002 RMK A01 T02330208  RH  086%=      5-min Rain = 0
KDO1 061302Z 34004KT 24/21 A3002 RMK A01 T02350208  RH  085%=      5-min Rain = 0
KDO1 061303Z 35004KT 24/21 A3002 RMK A01 T02360207  RH  084%=      5-min Rain = 0
KDO1 061304Z 35005KT 24/21 A3002 RMK A01 T02360207  RH  084%=      5-min Rain = 0
KDO1 061305Z 35004KT 24/21 A3002 RMK A01 T02360207  RH  084%=      5-min Rain = 0
KDO1 061306Z 00004KT 24/21 A3002 RMK A01 T02360207  RH  084%=      5-min Rain = 0
KDO1 061307Z 00005KT 24/21 A3002 RMK A01 T02360207  RH  084%=      5-min Rain = 0
KDO1 061308Z 35005KT 24/21 A3002 RMK A01 T02370207  RH  083%=      5-min Rain = 0
KDO1 061309Z 35005KT 24/21 A3002 RMK A01 T02370207  RH  083%=      5-min Rain = 0
KDO1 061310Z 36005KT 24/21 A3002 RMK A01 T02380207  RH  083%=      5-min Rain = 0
KDO1 061311Z 36006KT 24/21 A3002 RMK A01 T02390208  RH  083%=      5-min Rain = 0
KDO1 061312Z 01005KT 24/21 A3002 RMK A01 T02400208  RH  082%=      5-min Rain = 0
KDO1 061313Z 00004KT 24/21 A3002 RMK A01 T02400208  RH  082%=      5-min Rain = 0
KDO1 061314Z 35005KT 24/21 A3002 RMK A01 T02420208  RH  082%=      5-min Rain = 0
KDO1 061315Z 00005KT 24/21 A3002 RMK A01 T02420208  RH  081%=      5-min Rain = 0
KDO1 061316Z 01004KT 24/21 A3002 RMK A01 T02430208  RH  081%=      5-min Rain = 0
KDO1 061317Z 01006KT 24/21 A3002 RMK A01 T02430208  RH  081%=      5-min Rain = 0
KDO1 061318Z 36006KT 24/21 A3002 RMK A01 T02430208  RH  081%=      5-min Rain = 0
KDO1 061319Z 35007KT 24/21 A3002 RMK A01 T02420208  RH  081%=      5-min Rain = 0
KDO1 061320Z 35004KT 24/21 A3002 RMK A01 T02420208  RH  081%=      5-min Rain = 0
KDO1 061321Z 35006KT 24/21 A3002 RMK A01 T02420208  RH  081%=      5-min Rain = 0
KDO1 061322Z 00006KT 24/21 A3002 RMK A01 T02440208  RH  080%=      5-min Rain = 0
KDO1 061323Z 00006KT 24/21 A3002 RMK A01 T02440207  RH  080%=      5-min Rain = 0
KDO1 061324Z 01006KT 24/21 A3002 RMK A01 T02440206  RH  079%=      5-min Rain = 0
KDO1 061325Z 00003KT 25/21 A3002 RMK A01 T02450208  RH  080%=      5-min Rain = 0
KDO1 061326Z 00004KT 25/21 A3002 RMK A01 T02450208  RH  080%=      5-min Rain = 0
KDO1 061327Z 01005KT 25/21 A3002 RMK A01 T02470207  RH  079%=      5-min Rain = 0
KDO1 061328Z 00006KT 25/20 A3002 RMK A01 T02490204  RH  076%=      5-min Rain = 0
KDO1 061329Z 01006KT 25/20 A3003 RMK A01 T02490203  RH  076%=      5-min Rain = 0
KDO1 061330Z 35005KT 25/20 A3003 RMK A01 T02490204  RH  076%=      5-min Rain = 0
KDO1 061331Z 34006KT 25/20 A3003 RMK A01 T02490204  RH  076%=      5-min Rain = 0
KDO1 061332Z 33006KT 25/20 A3003 RMK A01 T02480202  RH  075%=      5-min Rain = 0
KDO1 061333Z 00004KT 25/20 A3003 RMK A01 T02480202  RH  076%=      5-min Rain = 0
KDO1 061334Z 01004KT 25/20 A3003 RMK A01 T02500199  RH  074%=      5-min Rain = 0
KDO1 061335Z 02003KT 25/20 A3003 RMK A01 T02520199  RH  073%=      5-min Rain = 0
KDO1 061336Z 04004KT 25/20 A3003 RMK A01 T02540197  RH  071%=      5-min Rain = 0
KDO1 061337Z 04003KT 26/20 A3003 RMK A01 T02550195  RH  069%=      5-min Rain = 0
KDO1 061338Z 03003KT 26/20 A3003 RMK A01 T02550198  RH  071%=      5-min Rain = 0
KDO1 061339Z 03005KT 26/20 A3003 RMK A01 T02560199  RH  071%=      5-min Rain = 0
KDO1 061340Z 02005KT 26/20 A3003 RMK A01 T02560197  RH  070%=      5-min Rain = 0
KDO1 061341Z 01004KT 26/20 A3003 RMK A01 T02550196  RH  070%=      5-min Rain = 0
KDO1 061342Z 02004KT 26/20 A3003 RMK A01 T02550196  RH  070%=      5-min Rain = 0
KDO1 061343Z 00005KT 25/20 A3003 RMK A01 T02540195  RH  070%=      5-min Rain = 0
KDO1 061344Z 00004KT 25/19 A3003 RMK A01 T02540194  RH  069%=      5-min Rain = 0
KDO1 061345Z 02003KT 26/19 A3003 RMK A01 T02550193  RH  069%=      5-min Rain = 0
KDO1 061346Z 05004KT 26/20 A3003 RMK A01 T02550195  RH  069%=      5-min Rain = 0
KDO1 061347Z 05005KT 26/20 A3003 RMK A01 T02560198  RH  070%=      5-min Rain = 0
KDO1 061348Z 04005KT 26/20 A3003 RMK A01 T02570199  RH  070%=      5-min Rain = 0
KDO1 061349Z 02003KT 26/20 A3003 RMK A01 T02570198  RH  070%=      5-min Rain = 0
KDO1 061350Z 04003KT 26/20 A3003 RMK A01 T02580199  RH  070%=      5-min Rain = 0
KDO1 061351Z 05004KT 26/20 A3003 RMK A01 T02580199  RH  070%=      5-min Rain = 0
KDO1 061352Z 04004KT 26/20 A3003 RMK A01 T02580197  RH  069%=      5-min Rain = 0
KDO1 061353Z 06003KT 26/20 A3003 RMK A01 T02580197  RH  069%=      5-min Rain = 0
KDO1 061354Z 07005KT 26/20 A3003 RMK A01 T02580198  RH  069%=      5-min Rain = 0
KDO1 061355Z 05005KT 26/20 A3003 RMK A01 T02600197  RH  068%=      5-min Rain = 0
KDO1 061356Z 03003KT 26/20 A3003 RMK A01 T02610197  RH  068%=      5-min Rain = 0
KDO1 061357Z 06002KT 26/20 A3003 RMK A01 T02630199  RH  068%=      5-min Rain = 0
KDO1 061358Z 02001KT 27/20 A3003 RMK A01 T02650198  RH  067%=      5-min Rain = 0
KDO1 061359Z 03004KT 27/20 A3003 RMK A01 T02650197  RH  066%=      5-min Rain = 0
KDO1 061400Z 04004KT 27/20 A3003 RMK A01 T02650196  RH  066%=      5-min Rain = 0
KDO1 061401Z 03005KT 26/20 A3003 RMK A01 T02640197  RH  067%=      5-min Rain = 0
KDO1 061402Z 05006KT 26/20 A3003 RMK A01 T02630198  RH  068%=      5-min Rain = 0
KDO1 061403Z 05006KT 26/20 A3003 RMK A01 T02630197  RH  067%=      5-min Rain = 0
KDO1 061404Z 05004KT 26/20 A3003 RMK A01 T02620198  RH  068%=      5-min Rain = 0
KDO1 061405Z 07003KT 26/20 A3003 RMK A01 T02620198  RH  068%=      5-min Rain = 0
KDO1 061406Z 06002KT 26/20 A3003 RMK A01 T02620198  RH  068%=      5-min Rain = 0
KDO1 061407Z 07005KT 26/20 A3003 RMK A01 T02620198  RH  068%=      5-min Rain = 0
KDO1 061408Z 06005KT 26/20 A3003 RMK A01 T02640198  RH  067%=      5-min Rain = 0
KDO1 061409Z 06004KT 27/20 A3003 RMK A01 T02650198  RH  066%=      5-min Rain = 0
KDO1 061410Z 06003KT 27/20 A3003 RMK A01 T02660196  RH  066%=      5-min Rain = 0
KDO1 061411Z 06003KT 27/20 A3003 RMK A01 T02660197  RH  066%=      5-min Rain = 0
KDO1 061412Z 06005KT 27/20 A3003 RMK A01 T02660196  RH  065%=      5-min Rain = 0
KDO1 061413Z 05005KT 27/20 A3003 RMK A01 T02660197  RH  066%=      5-min Rain = 0
KDO1 061414Z 05005KT 27/20 A3003 RMK A01 T02670197  RH  065%=      5-min Rain = 0
KDO1 061415Z 04004KT 27/20 A3003 RMK A01 T02670196  RH  065%=      5-min Rain = 0
KDO1 061416Z 03005KT 27/20 A3003 RMK A01 T02660197  RH  066%=      5-min Rain = 0
KDO1 061417Z 05004KT 27/20 A3003 RMK A01 T02650197  RH  066%=      5-min Rain = 0
KDO1 061418Z 05004KT 26/20 A3003 RMK A01 T02640197  RH  066%=      5-min Rain = 0
KDO1 061419Z 05004KT 26/20 A3003 RMK A01 T02640197  RH  066%=      5-min Rain = 0
KDO1 061420Z 06003KT 27/20 A3003 RMK A01 T02650196  RH  066%=      5-min Rain = 0
KDO1 061421Z 07004KT 27/20 A3003 RMK A01 T02660196  RH  066%=      5-min Rain = 0
KDO1 061422Z 07002KT 27/20 A3003 RMK A01 T02670196  RH  065%=      5-min Rain = 0
KDO1 061423Z 05005KT 27/20 A3003 RMK A01 T02680195  RH  064%=      5-min Rain = 0
KDO1 061424Z 05005KT 27/20 A3003 RMK A01 T02670195  RH  065%=      5-min Rain = 0
KDO1 061425Z 05005KT 27/20 A3003 RMK A01 T02660195  RH  065%=      5-min Rain = 0
KDO1 061426Z 06004KT 27/20 A3003 RMK A01 T02650195  RH  065%=      5-min Rain = 0
KDO1 061427Z 06005KT 27/20 A3003 RMK A01 T02660196  RH  065%=      5-min Rain = 0
KDO1 061428Z 07003KT 27/20 A3003 RMK A01 T02660196  RH  065%=      5-min Rain = 0
KDO1 061429Z 04004KT 27/20 A3003 RMK A01 T02670196  RH  065%=      5-min Rain = 0
KDO1 061430Z 05003KT 27/20 A3003 RMK A01 T02670195  RH  065%=      5-min Rain = 0
KDO1 061431Z 01003KT 27/20 A3003 RMK A01 T02670195  RH  065%=      5-min Rain = 0
KDO1 061432Z 04002KT 27/20 A3003 RMK A01 T02650195  RH  065%=      5-min Rain = 0
KDO1 061433Z 04004KT 27/20 A3003 RMK A01 T02660195  RH  065%=      5-min Rain = 0
KDO1 061434Z 04005KT 27/20 A3003 RMK A01 T02670197  RH  066%=      5-min Rain = 0
KDO1 061435Z 05004KT 27/20 A3003 RMK A01 T02680197  RH  065%=      5-min Rain = 0
KDO1 061436Z 06004KT 27/20 A3003 RMK A01 T02690197  RH  065%=      5-min Rain = 0
KDO1 061437Z 04003KT 27/20 A3003 RMK A01 T02700198  RH  065%=      5-min Rain = 0
KDO1 061438Z 03004KT 27/20 A3003 RMK A01 T02710198  RH  064%=      5-min Rain = 0
KDO1 061439Z 03003KT 27/20 A3003 RMK A01 T02710197  RH  064%=      5-min Rain = 0
KDO1 061440Z 02006KT 27/20 A3003 RMK A01 T02710198  RH  064%=      5-min Rain = 0
KDO1 061441Z 02006KT 27/20 A3003 RMK A01 T02700197  RH  064%=      5-min Rain = 0
KDO1 061442Z 03005KT 27/20 A3003 RMK A01 T02700198  RH  065%=      5-min Rain = 0
KDO1 061443Z 04006KT 27/20 A3003 RMK A01 T02700198  RH  064%=      5-min Rain = 0
KDO1 061444Z 02004KT 27/20 A3003 RMK A01 T02710197  RH  064%=      5-min Rain = 0
KDO1 061445Z 04002KT 27/20 A3003 RMK A01 T02700198  RH  065%=      5-min Rain = 0
KDO1 061446Z 05006KT 27/20 A3003 RMK A01 T02700197  RH  064%=      5-min Rain = 0
KDO1 061447Z 05003KT 27/20 A3003 RMK A01 T02710197  RH  064%=      5-min Rain = 0
KDO1 061448Z 05002KT 27/20 A3003 RMK A01 T02710197  RH  064%=      5-min Rain = 0
KDO1 061449Z 06006KT 27/20 A3003 RMK A01 T02710199  RH  064%=      5-min Rain = 0
KDO1 061450Z 06005KT 27/20 A3003 RMK A01 T02730199  RH  064%=      5-min Rain = 0
KDO1 061451Z 05003KT 28/20 A3003 RMK A01 T02750199  RH  063%=      5-min Rain = 0
KDO1 061452Z 04004KT 28/20 A3003 RMK A01 T02750199  RH  064%=      5-min Rain = 0
KDO1 061453Z 03002KT 27/20 A3003 RMK A01 T02740199  RH  064%=      5-min Rain = 0
KDO1 061454Z 06000KT 27/20 A3003 RMK A01 T02730199  RH  064%=      5-min Rain = 0
KDO1 061455Z 06002KT 27/20 A3003 RMK A01 T02730200  RH  064%=      5-min Rain = 0
KDO1 061456Z 03004KT 28/20 A3003 RMK A01 T02760201  RH  064%=      5-min Rain = 0
KDO1 061457Z 00003KT 28/20 A3003 RMK A01 T02770200  RH  063%=      5-min Rain = 0
KDO1 061458Z 00003KT 28/20 A3003 RMK A01 T02750201  RH  064%=      5-min Rain = 0
KDO1 061459Z 06003KT 27/20 A3003 RMK A01 T02730201  RH  065%=      5-min Rain = 0
KDO1 061500Z 08004KT 27/20 A3003 RMK A01 T02740201  RH  064%=      5-min Rain = 0
KDO1 061501Z 03000KT 28/20 A3003 RMK A01 T02750199  RH  063%=      5-min Rain = 0
KDO1 061502Z 05003KT 27/20 A3003 RMK A01 T02740200  RH  064%=      5-min Rain = 0
KDO1 061503Z 04005KT 28/20 A3003 RMK A01 T02760202  RH  064%=      5-min Rain = 0
KDO1 061504Z 04006KT 28/20 A3003 RMK A01 T02780201  RH  063%=      5-min Rain = 0
KDO1 061505Z 05004KT 28/20 A3003 RMK A01 T02790202  RH  063%=      5-min Rain = 0
KDO1 061506Z 05005KT 28/20 A3003 RMK A01 T02810202  RH  062%=      5-min Rain = 0
KDO1 061507Z 05005KT 28/20 A3003 RMK A01 T02800203  RH  063%=      5-min Rain = 0
KDO1 061508Z 08004KT 28/20 A3003 RMK A01 T02780203  RH  064%=      5-min Rain = 0
KDO1 061509Z 07004KT 28/20 A3003 RMK A01 T02780202  RH  063%=      5-min Rain = 0
KDO1 061510Z 06004KT 28/20 A3003 RMK A01 T02780203  RH  064%=      5-min Rain = 0
KDO1 061511Z 09003KT 28/20 A3003 RMK A01 T02770202  RH  063%=      5-min Rain = 0
KDO1 061512Z 11001KT 28/20 A3003 RMK A01 T02790202  RH  063%=      5-min Rain = 0
KDO1 061513Z 05004KT 28/20 A3003 RMK A01 T02800203  RH  063%=      5-min Rain = 0
KDO1 061514Z 07005KT 28/20 A3003 RMK A01 T02810204  RH  063%=      5-min Rain = 0
KDO1 061515Z 07004KT 28/21 A3003 RMK A01 T02820205  RH  063%=      5-min Rain = 0
KDO1 061516Z 06004KT 29/20 A3003 RMK A01 T02850204  RH  062%=      5-min Rain = 0
KDO1 061517Z 06003KT 28/20 A3003 RMK A01 T02840204  RH  062%=      5-min Rain = 0
KDO1 061518Z 07004KT 28/20 A3003 RMK A01 T02820203  RH  062%=      5-min Rain = 0
KDO1 061519Z 08006KT 28/20 A3003 RMK A01 T02820204  RH  063%=      5-min Rain = 0
KDO1 061520Z 07004KT 28/20 A3003 RMK A01 T02810203  RH  063%=      5-min Rain = 0
KDO1 061521Z 08004KT 28/20 A3003 RMK A01 T02800202  RH  063%=      5-min Rain = 0
KDO1 061522Z 10003KT 28/20 A3003 RMK A01 T02800202  RH  063%=      5-min Rain = 0
KDO1 061523Z 06004KT 28/20 A3003 RMK A01 T02800203  RH  063%=      5-min Rain = 0
KDO1 061524Z 05004KT 28/20 A3003 RMK A01 T02830202  RH  061%=      5-min Rain = 0
KDO1 061525Z 04005KT 28/20 A3003 RMK A01 T02830202  RH  061%=      5-min Rain = 0
KDO1 061526Z 04002KT 28/20 A3003 RMK A01 T02830201  RH  061%=      5-min Rain = 0
KDO1 061527Z 02004KT 28/20 A3003 RMK A01 T02830201  RH  061%=      5-min Rain = 0
KDO1 061528Z 05005KT 28/20 A3003 RMK A01 T02820202  RH  062%=      5-min Rain = 0
KDO1 061529Z 03004KT 28/20 A3003 RMK A01 T02830202  RH  061%=      5-min Rain = 0
KDO1 061530Z 05003KT 28/20 A3003 RMK A01 T02830202  RH  062%=      5-min Rain = 0
KDO1 061531Z 07006KT 28/20 A3003 RMK A01 T02840202  RH  061%=      5-min Rain = 0
KDO1 061532Z 05005KT 29/20 A3003 RMK A01 T02850202  RH  061%=      5-min Rain = 0
KDO1 061533Z 07005KT 29/20 A3003 RMK A01 T02860200  RH  060%=      5-min Rain = 0
KDO1 061534Z 07004KT 29/20 A3003 RMK A01 T02850201  RH  060%=      5-min Rain = 0
KDO1 061535Z 06006KT 28/20 A3003 RMK A01 T02830201  RH  061%=      5-min Rain = 0
KDO1 061536Z 07006KT 28/20 A3003 RMK A01 T02810202  RH  062%=      5-min Rain = 0
KDO1 061537Z 07005KT 28/20 A3003 RMK A01 T02820201  RH  062%=      5-min Rain = 0
KDO1 061538Z 08005KT 28/20 A3003 RMK A01 T02820202  RH  062%=      5-min Rain = 0
KDO1 061539Z 08003KT 28/20 A3003 RMK A01 T02830201  RH  061%=      5-min Rain = 0
KDO1 061540Z 09004KT 29/20 A3003 RMK A01 T02850202  RH  061%=      5-min Rain = 0
KDO1 061541Z 05005KT 29/20 A3003 RMK A01 T02870202  RH  060%=      5-min Rain = 0
KDO1 061542Z 06005KT 29/20 A3003 RMK A01 T02870202  RH  060%=      5-min Rain = 0
KDO1 061543Z 07005KT 29/20 A3003 RMK A01 T02880202  RH  060%=      5-min Rain = 0
KDO1 061544Z 07006KT 29/20 A3003 RMK A01 T02900202  RH  059%=      5-min Rain = 0
KDO1 061545Z 04005KT 29/20 A3003 RMK A01 T02910202  RH  059%=      5-min Rain = 0
KDO1 061546Z 06002KT 29/20 A3003 RMK A01 T02910201  RH  059%=      5-min Rain = 0
KDO1 061547Z 07004KT 29/20 A3003 RMK A01 T02890202  RH  060%=      5-min Rain = 0
KDO1 061548Z 08006KT 29/20 A3003 RMK A01 T02910204  RH  059%=      5-min Rain = 0
KDO1 061549Z 09006KT 29/20 A3003 RMK A01 T02930203  RH  058%=      5-min Rain = 0
KDO1 061550Z 09007KT 29/20 A3003 RMK A01 T02930203  RH  058%=      5-min Rain = 0
KDO1 061551Z 07008KT 29/20 A3003 RMK A01 T02920202  RH  059%=      5-min Rain = 0
KDO1 061552Z 07006KT 29/20 A3003 RMK A01 T02910203  RH  059%=      5-min Rain = 0
KDO1 061553Z 04006KT 29/20 A3003 RMK A01 T02910203  RH  059%=      5-min Rain = 0
KDO1 061554Z 04005KT 29/20 A3003 RMK A01 T02920198  RH  057%=      5-min Rain = 0
KDO1 061555Z 06007KT 29/20 A3003 RMK A01 T02900200  RH  058%=      5-min Rain = 0
KDO1 061556Z 06007KT 29/20 A3003 RMK A01 T02900197  RH  057%=      5-min Rain = 0
KDO1 061557Z 07005KT 29/20 A3003 RMK A01 T02900196  RH  057%=      5-min Rain = 0
KDO1 061558Z 08003KT 29/20 A3003 RMK A01 T02890196  RH  057%=      5-min Rain = 0
KDO1 061559Z 07002KT 29/20 A3003 RMK A01 T02890198  RH  058%=      5-min Rain = 0
KDO1 061600Z 07006KT 29/20 A3003 RMK A01 T02890200  RH  059%=      5-min Rain = 0
KDO1 061601Z 04005KT 29/20 A3003 RMK A01 T02910202  RH  059%=      5-min Rain = 0
KDO1 061602Z 05002KT 29/20 A3003 RMK A01 T02920201  RH  058%=      5-min Rain = 0
KDO1 061603Z 08002KT 29/20 A3003 RMK A01 T02910201  RH  058%=      5-min Rain = 0
KDO1 061604Z 05005KT 29/20 A3003 RMK A01 T02910201  RH  058%=      5-min Rain = 0
KDO1 061605Z 05008KT 29/20 A3003 RMK A01 T02930199  RH  057%=      5-min Rain = 0
KDO1 061606Z 05006KT 29/20 A3003 RMK A01 T02910198  RH  057%=      5-min Rain = 0
KDO1 061607Z 07004KT 29/20 A3003 RMK A01 T02880199  RH  059%=      5-min Rain = 0
KDO1 061608Z 05002KT 29/20 A3003 RMK A01 T02880197  RH  058%=      5-min Rain = 0
KDO1 061609Z 06004KT 29/20 A3003 RMK A01 T02880198  RH  058%=      5-min Rain = 0
KDO1 061610Z 03006KT 29/20 A3003 RMK A01 T02900200  RH  058%=      5-min Rain = 0
KDO1 061611Z 01005KT 29/20 A3003 RMK A01 T02920201  RH  058%=      5-min Rain = 0
KDO1 061612Z 00005KT 29/20 A3003 RMK A01 T02920202  RH  058%=      5-min Rain = 0
KDO1 061613Z 03004KT 30/20 A3003 RMK A01 T02950201  RH  057%=      5-min Rain = 0
KDO1 061614Z 04008KT 30/20 A3003 RMK A01 T02970202  RH  057%=      5-min Rain = 0
KDO1 061615Z 06007KT 30/20 A3003 RMK A01 T02970200  RH  056%=      5-min Rain = 0
KDO1 061616Z 07004KT 30/20 A3003 RMK A01 T02950200  RH  056%=      5-min Rain = 0
KDO1 061617Z 07006KT 29/20 A3003 RMK A01 T02940200  RH  057%=      5-min Rain = 0
KDO1 061618Z 09004KT 30/20 A3003 RMK A01 T02950198  RH  056%=      5-min Rain = 0
KDO1 061619Z 06008KT 29/20 A3003 RMK A01 T02940200  RH  057%=      5-min Rain = 0
KDO1 061620Z 06005KT 30/20 A3003 RMK A01 T02950200  RH  057%=      5-min Rain = 0
KDO1 061621Z 04007KT 30/20 A3003 RMK A01 T02960203  RH  057%=      5-min Rain = 0
KDO1 061622Z 01007KT 30/20 A3003 RMK A01 T02990202  RH  056%=      5-min Rain = 0
KDO1 061623Z 02006KT 30/20 A3003 RMK A01 T02990201  RH  056%=      5-min Rain = 0
KDO1 061624Z 04005KT 30/20 A3003 RMK A01 T02960201  RH  057%=      5-min Rain = 0
KDO1 061625Z 08006KT 30/20 A3003 RMK A01 T02950202  RH  057%=      5-min Rain = 0
KDO1 061626Z 07003KT 30/20 A3003 RMK A01 T02960200  RH  056%=      5-min Rain = 0
KDO1 061627Z 05003KT 30/20 A3003 RMK A01 T02960202  RH  057%=      5-min Rain = 0
KDO1 061628Z 08003KT 30/20 A3003 RMK A01 T02960202  RH  057%=      5-min Rain = 0
KDO1 061629Z 04004KT 29/20 A3003 RMK A01 T02940202  RH  058%=      5-min Rain = 0
KDO1 061630Z 02006KT 29/20 A3003 RMK A01 T02940201  RH  057%=      5-min Rain = 0
KDO1 061631Z 03007KT 29/20 A3003 RMK A01 T02930202  RH  058%=      5-min Rain = 0
KDO1 061632Z 03008KT 29/20 A3003 RMK A01 T02930201  RH  058%=      5-min Rain = 0
KDO1 061633Z 03009KT 29/20 A3003 RMK A01 T02920201  RH  058%=      5-min Rain = 0
KDO1 061634Z 05007KT 29/20 A3003 RMK A01 T02900201  RH  059%=      5-min Rain = 0
KDO1 061635Z 04006KT 29/20 A3003 RMK A01 T02880200  RH  059%=      5-min Rain = 0
KDO1 061636Z 03004KT 29/20 A3003 RMK A01 T02860201  RH  060%=      5-min Rain = 0
KDO1 061637Z 01006KT 29/20 A3003 RMK A01 T02860200  RH  060%=      5-min Rain = 0
KDO1 061638Z 00003KT 29/20 A3003 RMK A01 T02880200  RH  059%=      5-min Rain = 0
KDO1 061639Z 02006KT 29/20 A3003 RMK A01 T02900201  RH  059%=      5-min Rain = 0
KDO1 061640Z 00008KT 29/20 A3003 RMK A01 T02940201  RH  057%=      5-min Rain = 0
KDO1 061641Z 01007KT 30/20 A3003 RMK A01 T02970201  RH  056%=      5-min Rain = 0
KDO1 061642Z 03006KT 30/20 A3003 RMK A01 T02960201  RH  057%=      5-min Rain = 0
KDO1 061643Z 03007KT 30/20 A3003 RMK A01 T02950201  RH  057%=      5-min Rain = 0
KDO1 061644Z 06005KT 29/20 A3003 RMK A01 T02930201  RH  058%=      5-min Rain = 0
KDO1 061645Z 03004KT 29/20 A3003 RMK A01 T02930202  RH  058%=      5-min Rain = 0
KDO1 061646Z 04005KT 29/20 A3003 RMK A01 T02940202  RH  058%=      5-min Rain = 0
KDO1 061647Z 03003KT 29/20 A3003 RMK A01 T02930202  RH  058%=      5-min Rain = 0
KDO1 061648Z 03004KT 29/20 A3003 RMK A01 T02930203  RH  058%=      5-min Rain = 0
KDO1 061649Z 03005KT 30/20 A3003 RMK A01 T02960200  RH  056%=      5-min Rain = 0
KDO1 061650Z 04004KT 30/20 A3003 RMK A01 T02970202  RH  057%=      5-min Rain = 0
KDO1 061651Z 02003KT 30/20 A3003 RMK A01 T03010202  RH  055%=      5-min Rain = 0
KDO1 061652Z 05002KT 30/20 A3003 RMK A01 T03030200  RH  054%=      5-min Rain = 0
KDO1 061653Z 04003KT 31/20 A3003 RMK A01 T03050201  RH  054%=      5-min Rain = 0
KDO1 061654Z 08006KT 31/21 A3003 RMK A01 T03090206  RH  054%=      5-min Rain = 0
KDO1 061655Z 07009KT 31/21 A3003 RMK A01 T03120205  RH  053%=      5-min Rain = 0
KDO1 061656Z 06009KT 31/21 A3003 RMK A01 T03100205  RH  054%=      5-min Rain = 0
KDO1 061657Z 06008KT 30/20 A3003 RMK A01 T03040203  RH  055%=      5-min Rain = 0
KDO1 061658Z 05007KT 30/20 A3003 RMK A01 T02990202  RH  056%=      5-min Rain = 0
KDO1 061659Z 06008KT 30/20 A3003 RMK A01 T02960202  RH  057%=      5-min Rain = 0
KDO1 061700Z 06009KT 30/20 A3003 RMK A01 T02960202  RH  057%=      5-min Rain = 0
KDO1 061701Z 06009KT 30/20 A3003 RMK A01 T02960201  RH  057%=      5-min Rain = 0
KDO1 061702Z 06008KT 30/20 A3003 RMK A01 T02950200  RH  056%=      5-min Rain = 0
KDO1 061703Z 06007KT 29/20 A3003 RMK A01 T02930199  RH  057%=      5-min Rain = 0
KDO1 061704Z 05006KT 29/20 A3003 RMK A01 T02910199  RH  058%=      5-min Rain = 0
KDO1 061705Z 06005KT 29/20 A3003 RMK A01 T02900199  RH  058%=      5-min Rain = 0
KDO1 061706Z 08004KT 29/20 A3003 RMK A01 T02900199  RH  058%=      5-min Rain = 0
KDO1 061707Z 05003KT 29/20 A3003 RMK A01 T02930198  RH  057%=      5-min Rain = 0
KDO1 061708Z 04002KT 30/20 A3003 RMK A01 T02950197  RH  056%=      5-min Rain = 0
KDO1 061709Z 05002KT 30/20 A3003 RMK A01 T02950199  RH  056%=      5-min Rain = 0
KDO1 061710Z 04004KT 30/20 A3003 RMK A01 T02950200  RH  057%=      5-min Rain = 0
KDO1 061711Z 07006KT 30/20 A3003 RMK A01 T02950200  RH  057%=      5-min Rain = 0
KDO1 061712Z 09008KT 30/20 A3003 RMK A01 T02960198  RH  056%=      5-min Rain = 0
KDO1 061713Z 09006KT 30/20 A3003 RMK A01 T02980199  RH  055%=      5-min Rain = 0
KDO1 061714Z 03009KT 30/20 A3003 RMK A01 T03030201  RH  054%=      5-min Rain = 0
KDO1 061715Z 04007KT 31/20 A3003 RMK A01 T03060201  RH  053%=      5-min Rain = 0
KDO1 061716Z 02005KT 30/20 A3003 RMK A01 T03040200  RH  054%=      5-min Rain = 0
KDO1 061717Z 05004KT 30/20 A3003 RMK A01 T03010201  RH  055%=      5-min Rain = 0
KDO1 061718Z 08003KT 31/20 A3003 RMK A01 T03050203  RH  055%=      5-min Rain = 0
KDO1 061719Z 06004KT 31/20 A3003 RMK A01 T03100202  RH  053%=      5-min Rain = 0
KDO1 061720Z 09007KT 31/20 A3003 RMK A01 T03120201  RH  052%=      5-min Rain = 0
KDO1 061721Z 09007KT 31/20 A3003 RMK A01 T03130201  RH  051%=      5-min Rain = 0
KDO1 061722Z 07004KT 31/20 A3003 RMK A01 T03130200  RH  051%=      5-min Rain = 0
KDO1 061723Z 06009KT 31/20 A3003 RMK A01 T03120200  RH  052%=      5-min Rain = 0
KDO1 061724Z 05012KT 31/20 A3003 RMK A01 T03110197  RH  051%=      5-min Rain = 0
KDO1 061725Z 04009KT 31/20 A3003 RMK A01 T03120197  RH  050%=      5-min Rain = 0
KDO1 061726Z 01008KT 31/20 A3003 RMK A01 T03130196  RH  050%=      5-min Rain = 0
KDO1 061727Z 02008KT 31/20 A3003 RMK A01 T03120195  RH  050%=      5-min Rain = 0
KDO1 061728Z 06006KT 31/20 A3003 RMK A01 T03110198  RH  051%=      5-min Rain = 0
KDO1 061729Z 06009KT 31/20 A3003 RMK A01 T03120199  RH  051%=      5-min Rain = 0
KDO1 061730Z 06010KT 31/20 A3003 RMK A01 T03140197  RH  050%=      5-min Rain = 0
KDO1 061731Z 06008KT 32/20 A3003 RMK A01 T03150197  RH  050%=      5-min Rain = 0
KDO1 061732Z 07008KT 31/20 A3003 RMK A01 T03140198  RH  050%=      5-min Rain = 0
KDO1 061733Z 08007KT 32/20 A3003 RMK A01 T03170199  RH  050%=      5-min Rain = 0
KDO1 061734Z 09005KT 32/20 A3003 RMK A01 T03190199  RH  049%=      5-min Rain = 0
KDO1 061735Z 08008KT 32/20 A3003 RMK A01 T03200200  RH  049%=      5-min Rain = 0
KDO1 061736Z 09005KT 32/20 A3003 RMK A01 T03180199  RH  049%=      5-min Rain = 0
KDO1 061737Z 09006KT 32/20 A3003 RMK A01 T03150200  RH  050%=      5-min Rain = 0
KDO1 061738Z 06004KT 31/20 A3003 RMK A01 T03130200  RH  051%=      5-min Rain = 0
KDO1 061739Z 04006KT 31/20 A3003 RMK A01 T03110200  RH  052%=      5-min Rain = 0
KDO1 061740Z 02008KT 31/20 A3003 RMK A01 T03090200  RH  052%=      5-min Rain = 0
KDO1 061741Z 03008KT 31/20 A3003 RMK A01 T03070198  RH  052%=      5-min Rain = 0
KDO1 061742Z 04008KT 31/20 A3003 RMK A01 T03050197  RH  052%=      5-min Rain = 0
KDO1 061743Z 05008KT 31/20 A3003 RMK A01 T03050197  RH  053%=      5-min Rain = 0
KDO1 061744Z 05008KT 30/20 A3003 RMK A01 T03040197  RH  053%=      5-min Rain = 0
KDO1 061745Z 06007KT 30/20 A3003 RMK A01 T03030199  RH  054%=      5-min Rain = 0
KDO1 061746Z 04007KT 31/20 A3003 RMK A01 T03060202  RH  054%=      5-min Rain = 0
KDO1 061747Z 04009KT 31/20 A3003 RMK A01 T03110204  RH  053%=      5-min Rain = 0
KDO1 061748Z 02007KT 31/20 A3003 RMK A01 T03130202  RH  052%=      5-min Rain = 0
KDO1 061749Z 03003KT 31/20 A3003 RMK A01 T03100200  RH  052%=      5-min Rain = 0
KDO1 061750Z 07004KT 31/20 A3003 RMK A01 T03070199  RH  052%=      5-min Rain = 0
KDO1 061751Z 06006KT 31/20 A3003 RMK A01 T03060200  RH  053%=      5-min Rain = 0
KDO1 061752Z 06006KT 31/20 A3003 RMK A01 T03050201  RH  054%=      5-min Rain = 0
KDO1 061753Z 05009KT 31/20 A3003 RMK A01 T03050200  RH  053%=      5-min Rain = 0
KDO1 061754Z 03007KT 31/20 A3003 RMK A01 T03050199  RH  053%=      5-min Rain = 0
KDO1 061755Z 03006KT 31/20 A3003 RMK A01 T03070202  RH  054%=      5-min Rain = 0
KDO1 061756Z 06005KT 31/20 A3003 RMK A01 T03100202  RH  052%=      5-min Rain = 0
KDO1 061757Z 08005KT 31/20 A3003 RMK A01 T03130202  RH  052%=      5-min Rain = 0
KDO1 061758Z 06007KT 32/20 A3003 RMK A01 T03150202  RH  051%=      5-min Rain = 0
KDO1 061759Z 07008KT 32/20 A3003 RMK A01 T03200201  RH  050%=      5-min Rain = 0
KDO1 061800Z 06007KT 32/20 A3003 RMK A01 T03200202  RH  050%=      5-min Rain = 0
KDO1 061801Z 06007KT 32/20 A3003 RMK A01 T03190204  RH  051%=      5-min Rain = 0
KDO1 061802Z 09008KT 32/20 A3003 RMK A01 T03220204  RH  050%=      5-min Rain = 0
KDO1 061803Z 07005KT 32/20 A3003 RMK A01 T03220202  RH  049%=      5-min Rain = 0
KDO1 061804Z 03005KT 32/20 A3003 RMK A01 T03190202  RH  050%=      5-min Rain = 0
KDO1 061805Z 01006KT 32/20 A3003 RMK A01 T03160202  RH  051%=      5-min Rain = 0
KDO1 061806Z 01007KT 31/20 A3003 RMK A01 T03130200  RH  051%=      5-min Rain = 0
KDO1 061807Z 04007KT 31/20 A3003 RMK A01 T03100198  RH  051%=      5-min Rain = 0
KDO1 061808Z 04006KT 31/20 A3003 RMK A01 T03060198  RH  052%=      5-min Rain = 0
KDO1 061809Z 04004KT 30/20 A3003 RMK A01 T03040199  RH  054%=      5-min Rain = 0
KDO1 061810Z 04005KT 31/20 A3003 RMK A01 T03070199  RH  052%=      5-min Rain = 0
KDO1 061811Z 01006KT 31/20 A3002 RMK A01 T03110196  RH  050%=      5-min Rain = 0
KDO1 061812Z 00008KT 31/20 A3002 RMK A01 T03130198  RH  051%=      5-min Rain = 0
KDO1 061813Z 36006KT 31/20 A3002 RMK A01 T03140196  RH  050%=      5-min Rain = 0
KDO1 061814Z 03005KT 32/20 A3002 RMK A01 T03150198  RH  050%=      5-min Rain = 0
KDO1 061815Z 07005KT 32/20 A3002 RMK A01 T03160199  RH  050%=      5-min Rain = 0
KDO1 061816Z 06005KT 32/20 A3002 RMK A01 T03180198  RH  049%=      5-min Rain = 0
KDO1 061817Z 05008KT 32/20 A3002 RMK A01 T03180200  RH  050%=      5-min Rain = 0
KDO1 061818Z 08005KT 32/20 A3002 RMK A01 T03180201  RH  050%=      5-min Rain = 0
KDO1 061819Z 04004KT 32/20 A3002 RMK A01 T03190199  RH  049%=      5-min Rain = 0
KDO1 061820Z 01003KT 32/20 A3002 RMK A01 T03170199  RH  050%=      5-min Rain = 0
KDO1 061821Z 03005KT 31/20 A3002 RMK A01 T03130198  RH  051%=      5-min Rain = 0
KDO1 061822Z 04007KT 31/20 A3002 RMK A01 T03120198  RH  051%=      5-min Rain = 0
KDO1 061823Z 02006KT 31/20 A3002 RMK A01 T03120198  RH  051%=      5-min Rain = 0
KDO1 061824Z 03007KT 31/20 A3002 RMK A01 T03120199  RH  051%=      5-min Rain = 0
KDO1 061825Z 03006KT 31/20 A3002 RMK A01 T03130198  RH  050%=      5-min Rain = 0
KDO1 061826Z 04005KT 31/20 A3002 RMK A01 T03130198  RH  050%=      5-min Rain = 0
KDO1 061827Z 03005G10KT 31/20 A3002 RMK A01 T03130199  RH  051%=      5-min Rain = 0
KDO1 061828Z 03009KT 32/20 A3002 RMK A01 T03150197  RH  050%=      5-min Rain = 0
KDO1 061829Z 02006KT 32/20 A3002 RMK A01 T03150196  RH  049%=      5-min Rain = 0
KDO1 061830Z 03005KT 32/20 A3002 RMK A01 T03150195  RH  049%=      5-min Rain = 0
KDO1 061831Z 35005KT 32/20 A3002 RMK A01 T03150196  RH  049%=      5-min Rain = 0
KDO1 061832Z 01005KT 32/20 A3002 RMK A01 T03150196  RH  049%=      5-min Rain = 0
KDO1 061833Z 04006KT 32/20 A3002 RMK A01 T03150198  RH  050%=      5-min Rain = 0
KDO1 061834Z 03008KT 32/20 A3002 RMK A01 T03150200  RH  050%=      5-min Rain = 0
KDO1 061835Z 04007KT 32/20 A3002 RMK A01 T03150198  RH  050%=      5-min Rain = 0
KDO1 061836Z 03006KT 31/20 A3002 RMK A01 T03130199  RH  051%=      5-min Rain = 0
KDO1 061837Z 07009KT 32/20 A3002 RMK A01 T03160197  RH  049%=      5-min Rain = 0
KDO1 061838Z 07006KT 32/20 A3002 RMK A01 T03200196  RH  048%=      5-min Rain = 0
KDO1 061839Z 05004KT 32/20 A3001 RMK A01 T03220196  RH  047%=      5-min Rain = 0
KDO1 061840Z 06005KT 32/20 A3001 RMK A01 T03220196  RH  047%=      5-min Rain = 0
KDO1 061841Z 08006KT 32/20 A3001 RMK A01 T03200196  RH  048%=      5-min Rain = 0
KDO1 061842Z 09009KT 32/20 A3001 RMK A01 T03190195  RH  048%=      5-min Rain = 0
KDO1 061843Z 10009KT 32/20 A3001 RMK A01 T03180195  RH  048%=      5-min Rain = 0
KDO1 061844Z 09007KT 32/19 A3001 RMK A01 T03180194  RH  048%=      5-min Rain = 0
KDO1 061845Z 10008KT 32/20 A3001 RMK A01 T03200195  RH  048%=      5-min Rain = 0
KDO1 061846Z 08007KT 33/20 A3001 RMK A01 T03260197  RH  047%=      5-min Rain = 0
KDO1 061847Z 04006KT 33/20 A3001 RMK A01 T03300200  RH  047%=      5-min Rain = 0
KDO1 061848Z 04003KT 33/20 A3001 RMK A01 T03310199  RH  046%=      5-min Rain = 0
KDO1 061849Z 35004KT 33/20 A3001 RMK A01 T03310199  RH  046%=      5-min Rain = 0
KDO1 061850Z 03003KT 33/20 A3001 RMK A01 T03290199  RH  047%=      5-min Rain = 0
KDO1 061851Z 02003KT 33/20 A3001 RMK A01 T03280199  RH  047%=      5-min Rain = 0
KDO1 061852Z 36004KT 33/20 A3001 RMK A01 T03280199  RH  047%=      5-min Rain = 0
KDO1 061853Z 00006KT 33/20 A3001 RMK A01 T03260197  RH  047%=      5-min Rain = 0
KDO1 061854Z 01006KT 32/20 A3001 RMK A01 T03200197  RH  048%=      5-min Rain = 0
KDO1 061855Z 01001KT 32/20 A3001 RMK A01 T03160197  RH  049%=      5-min Rain = 0
KDO1 061856Z 01006G11KT 32/20 A3001 RMK A01 T03160197  RH  049%=      5-min Rain = 0
KDO1 061857Z 00004KT 32/20 A3001 RMK A01 T03200197  RH  048%=      5-min Rain = 0
KDO1 061858Z 02004KT 32/20 A3001 RMK A01 T03220196  RH  047%=      5-min Rain = 0
KDO1 061859Z 03003KT 32/20 A3001 RMK A01 T03220197  RH  048%=      5-min Rain = 0
KDO1 061900Z 03008KT 32/20 A3001 RMK A01 T03240198  RH  047%=      5-min Rain = 0
KDO1 061901Z 05007KT 33/20 A3001 RMK A01 T03270196  RH  046%=      5-min Rain = 0
KDO1 061902Z 04006KT 33/20 A3001 RMK A01 T03250197  RH  047%=      5-min Rain = 0
KDO1 061903Z 03008KT 32/20 A3001 RMK A01 T03240196  RH  047%=      5-min Rain = 0
KDO1 061904Z 06006KT 32/20 A3001 RMK A01 T03220197  RH  048%=      5-min Rain = 0
KDO1 061905Z 07007KT 32/19 A3001 RMK A01 T03210192  RH  047%=      5-min Rain = 0
KDO1 061906Z 06008KT 32/19 A3001 RMK A01 T03200194  RH  047%=      5-min Rain = 0
KDO1 061907Z 07005KT 32/20 A3001 RMK A01 T03220196  RH  047%=      5-min Rain = 0
KDO1 061908Z 05009KT 32/20 A3001 RMK A01 T03240196  RH  047%=      5-min Rain = 0
KDO1 061909Z 07009KT 32/20 A3001 RMK A01 T03230198  RH  048%=      5-min Rain = 0
KDO1 061910Z 08011G17KT 32/20 A3001 RMK A01 T03210198  RH  048%=      5-min Rain = 0
KDO1 061911Z 09018KT 32/20 A30 RMK A01 T03180201  RH  050%=      5-min Rain = 0
KDO1 061912Z 09016KT 31/20 A30 RMK A01 T03110199  RH  052%=      5-min Rain = 0
KDO1 061913Z 09015KT 31/20 A3001 RMK A01 T03070197  RH  052%=      5-min Rain = 0
KDO1 061914Z 09011KT 31/20 A30 RMK A01 T03050196  RH  052%=      5-min Rain = 0
KDO1 061915Z 09012KT 31/20 A30 RMK A01 T03050196  RH  052%=      5-min Rain = 0
KDO1 061916Z 10013KT 31/20 A30 RMK A01 T03090200  RH  052%=      5-min Rain = 0
KDO1 061917Z 09013KT 32/20 A30 RMK A01 T03150202  RH  051%=      5-min Rain = 0
KDO1 061918Z 09013KT 32/20 A30 RMK A01 T03200203  RH  050%=      5-min Rain = 0
KDO1 061919Z 08015KT 32/20 A30 RMK A01 T03220204  RH  050%=      5-min Rain = 0
KDO1 061920Z 07012KT 32/21 A30 RMK A01 T03220205  RH  050%=      5-min Rain = 0
KDO1 061921Z 09008KT 32/21 A30 RMK A01 T03210206  RH  051%=      5-min Rain = 0
KDO1 061922Z 09012KT 33/20 A30 RMK A01 T03250204  RH  049%=      5-min Rain = 0
KDO1 061923Z 09014KT 33/20 A30 RMK A01 T03280202  RH  048%=      5-min Rain = 0
KDO1 061924Z 09014KT 33/20 A30 RMK A01 T03260204  RH  049%=      5-min Rain = 0
KDO1 061925Z 10010KT 32/20 A30 RMK A01 T03240203  RH  049%=      5-min Rain = 0
KDO1 061926Z 10010KT 32/20 A30 RMK A01 T03230202  RH  049%=      5-min Rain = 0
KDO1 061927Z 07011KT 32/20 A30 RMK A01 T03240201  RH  048%=      5-min Rain = 0
KDO1 061928Z 07008KT 32/20 A30 RMK A01 T03240202  RH  049%=      5-min Rain = 0
KDO1 061929Z 08008G13KT 33/20 A30 RMK A01 T03280203  RH  048%=      5-min Rain = 0
KDO1 061930Z 06008KT 33/20 A30 RMK A01 T03310201  RH  047%=      5-min Rain = 0
KDO1 061931Z 09009KT 33/20 A30 RMK A01 T03310202  RH  047%=      5-min Rain = 0
KDO1 061932Z 09009KT 33/20 A30 RMK A01 T03310202  RH  047%=      5-min Rain = 0
KDO1 061933Z 08010KT 33/20 A30 RMK A01 T03320202  RH  046%=      5-min Rain = 0
KDO1 061934Z 06008KT 33/20 A30 RMK A01 T03290200  RH  047%=      5-min Rain = 0
KDO1 061935Z 04007KT 33/20 A30 RMK A01 T03260199  RH  047%=      5-min Rain = 0
KDO1 061936Z 02011G16KT 32/21 A30 RMK A01 T03230205  RH  050%=      5-min Rain = 0
KDO1 061937Z 02012KT 32/21 A30 RMK A01 T03160207  RH  053%=      5-min Rain = 0
KDO1 061938Z 02010KT 31/21 A30 RMK A01 T03100205  RH  054%=      5-min Rain = 0
KDO1 061939Z 01012KT 31/21 A30 RMK A01 T03070211  RH  057%=      5-min Rain = 0
KDO1 061940Z 01010KT 30/22 A30 RMK A01 T03020218  RH  061%=      5-min Rain = 0
KDO1 061941Z 01009KT 30/22 A30 RMK A01 T02950221  RH  065%=      5-min Rain = 0
KDO1 061942Z 01009KT 29/22 A30 RMK A01 T02900220  RH  066%=      5-min Rain = 0
KDO1 061943Z 01007KT 29/22 A30 RMK A01 T02880223  RH  068%=      5-min Rain = 0
KDO1 061944Z 01007KT 29/22 A30 RMK A01 T02870220  RH  067%=      5-min Rain = 0
KDO1 061945Z 03007KT 29/22 A30 RMK A01 T02870218  RH  066%=      5-min Rain = 0
KDO1 061946Z 04008KT 29/22 A30 RMK A01 T02920215  RH  063%=      5-min Rain = 0
KDO1 061947Z 05009KT 30/21 A30 RMK A01 T02970209  RH  059%=      5-min Rain = 0
KDO1 061948Z 05008KT 30/20 A30 RMK A01 T03020204  RH  056%=      5-min Rain = 0
KDO1 061949Z 05005KT 31/21 A30 RMK A01 T03050205  RH  055%=      5-min Rain = 0
KDO1 061950Z 04007KT 31/21 A30 RMK A01 T03080207  RH  055%=      5-min Rain = 0
KDO1 061951Z 06010G21KT 31/21 A30 RMK A01 T03130208  RH  054%=      5-min Rain = 0
KDO1 061952Z 07017KT 31/22 A30 RMK A01 T03130221  RH  058%=      5-min Rain = 0
KDO1 061953Z 07016G21KT 31/23 A30 RMK A01 T03050230  RH  064%=      5-min Rain = 0
KDO1 061954Z 08016KT 30/23 A30 RMK A01 T02950230  RH  068%=      5-min Rain = 0
KDO1 061955Z 09014KT 29/23 A30 RMK A01 T02880232  RH  072%=      5-min Rain = 0
KDO1 061956Z 10009KT 28/24 A30 RMK A01 T02830237  RH  076%=      5-min Rain = 0
KDO1 061957Z 12008KT 28/24 A30 RMK A01 T02800236  RH  077%=      5-min Rain = 0
KDO1 061958Z 12008KT 28/23 A30 RMK A01 T02790233  RH  076%=      5-min Rain = 0
KDO1 061959Z 10007KT 28/24 A30 RMK A01 T02810238  RH  077%=      5-min Rain = 0
KDO1 062000Z 10007KT 28/24 A30 RMK A01 T02840240  RH  077%=      5-min Rain = 0
KDO1 062001Z 10007KT 29/23 A30 RMK A01 T02850228  RH  071%=      5-min Rain = 0
KDO1 062002Z 10006KT 29/22 A30 RMK A01 T02850220  RH  068%=      5-min Rain = 0
KDO1 062003Z 10006KT 28/22 A30 RMK A01 T02830220  RH  069%=      5-min Rain = 0
KDO1 062004Z 10004KT 28/21 A30 RMK A01 T02830211  RH  065%=      5-min Rain = 0
KDO1 062005Z 11005KT 29/21 A30 RMK A01 T02850213  RH  065%=      5-min Rain = 0
KDO1 062006Z 11004KT 29/21 A30 RMK A01 T02880210  RH  063%=      5-min Rain = 0
KDO1 062007Z 11005KT 29/22 A30 RMK A01 T02910217  RH  064%=      5-min Rain = 0
KDO1 062008Z 13004KT 29/22 A30 RMK A01 T02940224  RH  066%=      5-min Rain = 0
KDO1 062009Z 13004KT 30/22 A30 RMK A01 T02980221  RH  063%=      5-min Rain = 0
KDO1 062010Z 11003KT 30/21 A30 RMK A01 T03000211  RH  059%=      5-min Rain = 0
KDO1 062011Z 12003KT 30/21 A30 RMK A01 T03020208  RH  057%=      5-min Rain = 0
KDO1 062012Z 09003KT 30/20 A30 RMK A01 T03030204  RH  055%=      5-min Rain = 0
KDO1 062013Z 10003KT 31/21 A2999 RMK A01 T03070206  RH  055%=      5-min Rain = 0
KDO1 062014Z 11003KT 31/21 A2999 RMK A01 T03100211  RH  056%=      5-min Rain = 0
KDO1 062015Z 10003KT 31/21 A2999 RMK A01 T03120205  RH  053%=      5-min Rain = 0
KDO1 062016Z 08003KT 31/21 A2999 RMK A01 T03140206  RH  053%=      5-min Rain = 0
KDO1 062017Z 07003KT 32/21 A2999 RMK A01 T03150207  RH  053%=      5-min Rain = 0
KDO1 062018Z 07003KT 32/21 A2999 RMK A01 T03160207  RH  052%=      5-min Rain = 0
KDO1 062019Z 06003KT 32/20 A2999 RMK A01 T03180202  RH  050%=      5-min Rain = 0
KDO1 062020Z 06003KT 32/20 A2999 RMK A01 T03160204  RH  051%=      5-min Rain = 0
KDO1 062021Z 07003KT 32/21 A2999 RMK A01 T03160206  RH  052%=      5-min Rain = 0
KDO1 062022Z 06004KT 32/20 A2999 RMK A01 T03170203  RH  051%=      5-min Rain = 0
KDO1 062023Z 05003KT 32/20 A2999 RMK A01 T03160203  RH  051%=      5-min Rain = 0
KDO1 062024Z 06002KT 32/20 A2999 RMK A01 T03160204  RH  051%=      5-min Rain = 0
KDO1 062025Z 07002KT 32/20 A2999 RMK A01 T03160202  RH  051%=      5-min Rain = 0
KDO1 062026Z 04002KT 32/20 A2999 RMK A01 T03170202  RH  051%=      5-min Rain = 0
KDO1 062027Z 09003KT 32/21 A2999 RMK A01 T03190205  RH  051%=      5-min Rain = 0
KDO1 062028Z 07002KT 32/20 A2999 RMK A01 T03210203  RH  050%=      5-min Rain = 0
KDO1 062029Z 06004KT 32/21 A2999 RMK A01 T03220205  RH  050%=      5-min Rain = 0
KDO1 062030Z 07004KT 32/20 A2999 RMK A01 T03240199  RH  048%=      5-min Rain = 0
KDO1 062031Z 11002KT 32/20 A2999 RMK A01 T03230200  RH  048%=      5-min Rain = 0
KDO1 062032Z 07003KT 32/20 A2999 RMK A01 T03230202  RH  049%=      5-min Rain = 0
KDO1 062033Z 05001KT 32/20 A2999 RMK A01 T03240204  RH  049%=      5-min Rain = 0
KDO1 062034Z 04003KT 33/20 A2999 RMK A01 T03270200  RH  047%=      5-min Rain = 0
KDO1 062035Z 05002KT 33/20 A2999 RMK A01 T03290198  RH  046%=      5-min Rain = 0
KDO1 062036Z 06002KT 33/20 A2999 RMK A01 T03320195  RH  044%=      5-min Rain = 0
KDO1 062037Z 03002KT 33/19 A2999 RMK A01 T03320193  RH  044%=      5-min Rain = 0
KDO1 062038Z 09001KT 33/20 A2999 RMK A01 T03320195  RH  045%=      5-min Rain = 0
KDO1 062039Z 06005KT 33/20 A2999 RMK A01 T03320197  RH  045%=      5-min Rain = 0
KDO1 062040Z 09003KT 33/19 A2999 RMK A01 T03300193  RH  044%=      5-min Rain = 0
KDO1 062041Z 11002KT 33/19 A2998 RMK A01 T03280193  RH  045%=      5-min Rain = 0
KDO1 062042Z 08007KT 33/19 A2998 RMK A01 T03280193  RH  045%=      5-min Rain = 0
KDO1 062043Z 06006KT 33/19 A2998 RMK A01 T03290192  RH  044%=      5-min Rain = 0
KDO1 062044Z 08006KT 33/19 A2998 RMK A01 T03300192  RH  044%=      5-min Rain = 0
KDO1 062045Z 05005KT 33/20 A2998 RMK A01 T03330196  RH  045%=      5-min Rain = 0
KDO1 062046Z 06005KT 34/20 A2998 RMK A01 T03360196  RH  044%=      5-min Rain = 0
KDO1 062047Z 06006KT 34/19 A2998 RMK A01 T03360194  RH  043%=      5-min Rain = 0
KDO1 062048Z 04005KT 34/20 A2998 RMK A01 T03350195  RH  044%=      5-min Rain = 0
KDO1 062049Z 09006KT 34/20 A2998 RMK A01 T03380196  RH  043%=      5-min Rain = 0
KDO1 062050Z 10006KT 34/20 A2998 RMK A01 T03390195  RH  043%=      5-min Rain = 0
KDO1 062051Z 08006KT 34/20 A2998 RMK A01 T03380195  RH  043%=      5-min Rain = 0
KDO1 062052Z 09004KT 34/19 A2998 RMK A01 T03360193  RH  043%=      5-min Rain = 0
KDO1 062053Z 09006KT 33/19 A2998 RMK A01 T03310192  RH  044%=      5-min Rain = 0
KDO1 062054Z 10005KT 33/19 A2998 RMK A01 T03290192  RH  044%=      5-min Rain = 0
KDO1 062055Z 10004KT 33/19 A2998 RMK A01 T03290193  RH  045%=      5-min Rain = 0
KDO1 062056Z 10003KT 33/19 A2998 RMK A01 T03290194  RH  045%=      5-min Rain = 0
KDO1 062057Z 09003KT 33/19 A2998 RMK A01 T03300194  RH  045%=      5-min Rain = 0
KDO1 062058Z 03003KT 33/19 A2998 RMK A01 T03300194  RH  045%=      5-min Rain = 0
KDO1 062059Z 05004KT 33/20 A2998 RMK A01 T03290195  RH  045%=      5-min Rain = 0
KDO1 062100Z 07004G9KT 33/20 A2998 RMK A01 T03290196  RH  046%=      5-min Rain = 0
KDO1 062101Z 07007KT 33/20 A2998 RMK A01 T03270199  RH  047%=      5-min Rain = 0
KDO1 062102Z 09007KT 33/20 A2998 RMK A01 T03260199  RH  047%=      5-min Rain = 0
KDO1 062103Z 09006KT 33/20 A2998 RMK A01 T03260201  RH  048%=      5-min Rain = 0
KDO1 062104Z 10006KT 33/20 A2998 RMK A01 T03270200  RH  047%=      5-min Rain = 0
KDO1 062105Z 10007KT 33/20 A2998 RMK A01 T03270199  RH  047%=      5-min Rain = 0
KDO1 062106Z 10007KT 33/20 A2998 RMK A01 T03280198  RH  046%=      5-min Rain = 0
KDO1 062107Z 09005KT 33/20 A2998 RMK A01 T03280196  RH  046%=      5-min Rain = 0
KDO1 062108Z 08008KT 33/20 A2998 RMK A01 T03270199  RH  047%=      5-min Rain = 0
KDO1 062109Z 07008KT 33/20 A2998 RMK A01 T03270199  RH  047%=      5-min Rain = 0
KDO1 062110Z 07008KT 33/20 A2998 RMK A01 T03260201  RH  048%=      5-min Rain = 0
KDO1 062111Z 07007KT 33/20 A2998 RMK A01 T03270200  RH  047%=      5-min Rain = 0
KDO1 062112Z 08008KT 33/20 A2998 RMK A01 T03280201  RH  047%=      5-min Rain = 0
KDO1 062113Z 09007KT 33/20 A2997 RMK A01 T03290202  RH  047%=      5-min Rain = 0
KDO1 062114Z 11006KT 33/20 A2997 RMK A01 T03300201  RH  047%=      5-min Rain = 0
KDO1 062115Z 10004KT 33/20 A2997 RMK A01 T03310201  RH  046%=      5-min Rain = 0
KDO1 062116Z 09005KT 33/20 A2998 RMK A01 T03300199  RH  046%=      5-min Rain = 0
KDO1 062117Z 09004KT 33/20 A2998 RMK A01 T03280199  RH  047%=      5-min Rain = 0
KDO1 062118Z 11004KT 33/20 A2998 RMK A01 T03290201  RH  047%=      5-min Rain = 0
KDO1 062119Z 09005KT 33/20 A2998 RMK A01 T03300201  RH  047%=      5-min Rain = 0
KDO1 062120Z 10007KT 33/20 A2998 RMK A01 T03310201  RH  047%=      5-min Rain = 0
KDO1 062121Z 09009KT 33/20 A2998 RMK A01 T03310200  RH  046%=      5-min Rain = 0
KDO1 062122Z 09012KT 33/20 A2998 RMK A01 T03320202  RH  047%=      5-min Rain = 0
KDO1 062123Z 09015KT 33/21 A2998 RMK A01 T03340208  RH  048%=      5-min Rain = 0
KDO1 062124Z 10013KT 33/21 A2998 RMK A01 T03340209  RH  048%=      5-min Rain = 0
KDO1 062125Z 11013KT 33/21 A2998 RMK A01 T03330208  RH  048%=      5-min Rain = 0
KDO1 062126Z 12015KT 33/21 A2998 RMK A01 T03310210  RH  049%=      5-min Rain = 0
KDO1 062127Z 12016KT 33/21 A2998 RMK A01 T03300207  RH  049%=      5-min Rain = 0
KDO1 062128Z 11013KT 33/21 A2998 RMK A01 T03260208  RH  050%=      5-min Rain = 0
KDO1 062129Z 11012G18KT 33/21 A2998 RMK A01 T03250211  RH  051%=      5-min Rain = 0
KDO1 062130Z 11014KT 33/21 A2998 RMK A01 T03250208  RH  050%=      5-min Rain = 0
KDO1 062131Z 11013KT 32/21 A2998 RMK A01 T03220208  RH  051%=      5-min Rain = 0
KDO1 062132Z 11013KT 32/21 A2998 RMK A01 T03190208  RH  052%=      5-min Rain = 0
KDO1 062133Z 11013G19KT 32/21 A2998 RMK A01 T03180209  RH  052%=      5-min Rain = 0
KDO1 062134Z 11016KT 32/21 A2998 RMK A01 T03170207  RH  052%=      5-min Rain = 0
KDO1 062135Z 11015KT 32/21 A2998 RMK A01 T03150207  RH  053%=      5-min Rain = 0
KDO1 062136Z 11015KT 31/21 A2998 RMK A01 T03140206  RH  053%=      5-min Rain = 0
KDO1 062137Z 11013KT 31/21 A2998 RMK A01 T03130206  RH  053%=      5-min Rain = 0
KDO1 062138Z 12012KT 31/21 A2998 RMK A01 T03130207  RH  053%=      5-min Rain = 0
KDO1 062139Z 12012KT 31/21 A2998 RMK A01 T03130207  RH  053%=      5-min Rain = 0
KDO1 062140Z 12011KT 31/21 A2998 RMK A01 T03140207  RH  053%=      5-min Rain = 0
KDO1 062141Z 12012G17KT 32/21 A2998 RMK A01 T03170207  RH  052%=      5-min Rain = 0
KDO1 062142Z 13012KT 32/21 A2998 RMK A01 T03220207  RH  051%=      5-min Rain = 0
KDO1 062143Z 14011KT 33/21 A2998 RMK A01 T03250209  RH  050%=      5-min Rain = 0
KDO1 062144Z 13010KT 33/21 A2998 RMK A01 T03280211  RH  050%=      5-min Rain = 0
KDO1 062145Z 13012KT 33/21 A2998 RMK A01 T03300211  RH  049%=      5-min Rain = 0
KDO1 062146Z 12011KT 33/21 A2998 RMK A01 T03300211  RH  050%=      5-min Rain = 0
KDO1 062147Z 11011KT 33/22 A2998 RMK A01 T03290215  RH  051%=      5-min Rain = 0
KDO1 062148Z 13012KT 33/21 A2998 RMK A01 T03290213  RH  050%=      5-min Rain = 0
KDO1 062149Z 12010KT 33/21 A2998 RMK A01 T03280213  RH  051%=      5-min Rain = 0
KDO1 062150Z 11011KT 33/21 A2998 RMK A01 T03290212  RH  050%=      5-min Rain = 0
KDO1 062151Z 12009KT 33/21 A2998 RMK A01 T03320213  RH  050%=      5-min Rain = 0
KDO1 062152Z 12012KT 33/21 A2998 RMK A01 T03330208  RH  048%=      5-min Rain = 0
KDO1 062153Z 12011KT 33/21 A2998 RMK A01 T03310209  RH  049%=      5-min Rain = 0
KDO1 062154Z 11011KT 33/21 A2998 RMK A01 T03280209  RH  050%=      5-min Rain = 0
KDO1 062155Z 12013KT 33/21 A2998 RMK A01 T03270205  RH  049%=      5-min Rain = 0
KDO1 062156Z 12011KT 33/20 A2998 RMK A01 T03270203  RH  048%=      5-min Rain = 0
KDO1 062157Z 12012KT 33/20 A2997 RMK A01 T03270204  RH  048%=      5-min Rain = 0
KDO1 062158Z 12010KT 33/20 A2998 RMK A01 T03290203  RH  048%=      5-min Rain = 0
KDO1 062159Z 14010KT 33/20 A2997 RMK A01 T03290203  RH  048%=      5-min Rain = 0
KDO1 062200Z 13008KT 33/21 A2997 RMK A01 T03290205  RH  048%=      5-min Rain = 0
KDO1 062201Z 12007KT 33/21 A2997 RMK A01 T03320206  RH  048%=      5-min Rain = 0
KDO1 062202Z 12009KT 34/21 A2997 RMK A01 T03360208  RH  047%=      5-min Rain = 0
KDO1 062203Z 11011KT 34/20 A2997 RMK A01 T03390203  RH  045%=      5-min Rain = 0
KDO1 062204Z 13013KT 34/20 A2997 RMK A01 T03350204  RH  046%=      5-min Rain = 0
KDO1 062205Z 12011KT 33/21 A2997 RMK A01 T03330208  RH  048%=      5-min Rain = 0
KDO1 062206Z 12014KT 33/21 A2998 RMK A01 T03340207  RH  048%=      5-min Rain = 0
KDO1 062207Z 13011KT 33/21 A2998 RMK A01 T03330205  RH  047%=      5-min Rain = 0
KDO1 062208Z 14009KT 33/20 A2998 RMK A01 T03300204  RH  048%=      5-min Rain = 0
KDO1 062209Z 16008KT 33/21 A2998 RMK A01 T03300205  RH  048%=      5-min Rain = 0
KDO1 062210Z 16011KT 33/20 A2998 RMK A01 T03310202  RH  047%=      5-min Rain = 0
KDO1 062211Z 14008KT 33/20 A2998 RMK A01 T03280201  RH  047%=      5-min Rain = 0
KDO1 062212Z 13009KT 33/20 A2998 RMK A01 T03260202  RH  048%=      5-min Rain = 0
KDO1 062213Z 12009KT 33/20 A2998 RMK A01 T03270203  RH  048%=      5-min Rain = 0
KDO1 062214Z 10012KT 33/20 A2998 RMK A01 T03300201  RH  047%=      5-min Rain = 0
KDO1 062215Z 10010KT 33/20 A2998 RMK A01 T03300199  RH  046%=      5-min Rain = 0
KDO1 062216Z 10008KT 33/20 A2998 RMK A01 T03290199  RH  046%=      5-min Rain = 0
KDO1 062217Z 11007KT 33/20 A2998 RMK A01 T03290199  RH  046%=      5-min Rain = 0
KDO1 062218Z 11007KT 33/20 A2998 RMK A01 T03290201  RH  047%=      5-min Rain = 0
KDO1 062219Z 11008KT 33/20 A2998 RMK A01 T03300201  RH  047%=      5-min Rain = 0
KDO1 062220Z 12007G13KT 33/20 A2998 RMK A01 T03310203  RH  047%=      5-min Rain = 0
KDO1 062221Z 10012G17KT 33/20 A2998 RMK A01 T03320202  RH  046%=      5-min Rain = 0
KDO1 062222Z 11009KT 33/20 A2998 RMK A01 T03320201  RH  046%=      5-min Rain = 0
KDO1 062223Z 10007KT 33/20 A2998 RMK A01 T03310202  RH  047%=      5-min Rain = 0
KDO1 062224Z 10007KT 33/20 A2998 RMK A01 T03300201  RH  047%=      5-min Rain = 0
KDO1 062225Z 12005KT 33/20 A2998 RMK A01 T03290202  RH  047%=      5-min Rain = 0
KDO1 062226Z 14009KT 33/20 A2998 RMK A01 T03300200  RH  047%=      5-min Rain = 0
KDO1 062227Z 13009KT 33/20 A2997 RMK A01 T03300200  RH  046%=      5-min Rain = 0
KDO1 062228Z 12011KT 33/20 A2997 RMK A01 T03290202  RH  047%=      5-min Rain = 0
KDO1 062229Z 12013KT 33/21 A2997 RMK A01 T03310205  RH  048%=      5-min Rain = 0
KDO1 062230Z 13012KT 33/20 A2998 RMK A01 T03320203  RH  047%=      5-min Rain = 0
KDO1 062231Z 13008G13KT 33/20 A2998 RMK A01 T03290203  RH  047%=      5-min Rain = 0
KDO1 062232Z 13008KT 33/20 A2998 RMK A01 T03280204  RH  048%=      5-min Rain = 0
KDO1 062233Z 14010KT 33/20 A2998 RMK A01 T03290202  RH  047%=      5-min Rain = 0
KDO1 062234Z 12008KT 33/20 A2998 RMK A01 T03300202  RH  047%=      5-min Rain = 0
KDO1 062235Z 10005KT 33/20 A2998 RMK A01 T03300203  RH  047%=      5-min Rain = 0
KDO1 062236Z 11006KT 33/20 A2998 RMK A01 T03310202  RH  047%=      5-min Rain = 0
KDO1 062237Z 11010KT 33/20 A2998 RMK A01 T03310202  RH  047%=      5-min Rain = 0
KDO1 062238Z 11007KT 33/20 A2998 RMK A01 T03310202  RH  047%=      5-min Rain = 0
KDO1 062239Z 13012KT 33/20 A2998 RMK A01 T03310202  RH  047%=      5-min Rain = 0
KDO1 062240Z 13015KT 33/20 A2998 RMK A01 T03310203  RH  047%=      5-min Rain = 0
KDO1 062241Z 12013KT 33/20 A2998 RMK A01 T03310203  RH  047%=      5-min Rain = 0
KDO1 062242Z 12010KT 33/20 A2998 RMK A01 T03290203  RH  047%=      5-min Rain = 0
KDO1 062243Z 12009KT 33/20 A2998 RMK A01 T03290203  RH  048%=      5-min Rain = 0
KDO1 062244Z 13009KT 33/20 A2998 RMK A01 T03290202  RH  047%=      5-min Rain = 0
KDO1 062245Z 12010KT 33/20 A2998 RMK A01 T03300202  RH  047%=      5-min Rain = 0
KDO1 062246Z 12015KT 33/20 A2998 RMK A01 T03300201  RH  047%=      5-min Rain = 0
KDO1 062247Z 10013KT 33/20 A2998 RMK A01 T03320201  RH  046%=      5-min Rain = 0
KDO1 062248Z 10011KT 33/20 A2998 RMK A01 T03330203  RH  046%=      5-min Rain = 0
KDO1 062249Z 11011KT 33/20 A2998 RMK A01 T03320203  RH  047%=      5-min Rain = 0
KDO1 062250Z 10013KT 33/21 A2998 RMK A01 T03310205  RH  048%=      5-min Rain = 0
KDO1 062251Z 10016G21KT 33/21 A2998 RMK A01 T03280205  RH  048%=      5-min Rain = 0
KDO1 062252Z 09018KT 32/21 A2998 RMK A01 T03230206  RH  050%=      5-min Rain = 0
KDO1 062253Z 08020G25KT 32/21 A2999 RMK A01 T03160205  RH  052%=      5-min Rain = 0
KDO1 062254Z 07016KT 31/20 A2999 RMK A01 T03060204  RH  054%=      5-min Rain = 0
KDO1 062255Z 07015G22KT 30/20 A2999 RMK A01 T02980204  RH  057%=      5-min Rain = 0
KDO1 062256Z 07018KT 29/20 A2999 RMK A01 T02940203  RH  058%=      5-min Rain = 0
KDO1 062257Z 07016G23KT 29/20 A2999 RMK A01 T02900202  RH  059%=      5-min Rain = 0
KDO1 062258Z 06017G23KT 29/20 A2999 RMK A01 T02890201  RH  059%=      5-min Rain = 0
KDO1 062259Z 06019KT 29/20 A2999 RMK A01 T02880200  RH  059%=      5-min Rain = 0
KDO1 062300Z 07016KT 29/20 A2999 RMK A01 T02860197  RH  059%=      5-min Rain = 0
KDO1 062301Z 06016KT 29/20 A2999 RMK A01 T02850196  RH  058%=      5-min Rain = 0
KDO1 062302Z 05014G19KT 29/19 A2999 RMK A01 T02850193  RH  058%=      5-min Rain = 0
KDO1 062303Z 07014G19KT 29/19 A2999 RMK A01 T02850194  RH  058%=      5-min Rain = 0
KDO1 062304Z 05015KT 28/20 A2999 RMK A01 T02840195  RH  059%=      5-min Rain = 0
KDO1 062305Z 05016KT 28/20 A2999 RMK A01 T02830197  RH  060%=      5-min Rain = 0
KDO1 062306Z 05014KT 28/20 A2999 RMK A01 T02810199  RH  061%=      5-min Rain = 0
KDO1 062307Z 05011KT 28/20 A2999 RMK A01 T02790201  RH  063%=      5-min Rain = 0
KDO1 062308Z 04011G16KT 28/20 A30 RMK A01 T02770204  RH  065%=      5-min Rain = 0
KDO1 062309Z 04011KT 27/21 A30 RMK A01 T02740207  RH  067%=      5-min Rain = 0
KDO1 062310Z 03009KT 27/21 A30 RMK A01 T02690208  RH  069%=      5-min Rain = 0
KDO1 062311Z 03013KT 27/21 A30 RMK A01 T02650210  RH  072%=      5-min Rain = 0
KDO1 062312Z 04011KT 26/22 A30 RMK A01 T02610215  RH  076%=      5-min Rain = 0
KDO1 062313Z 04012KT 26/22 A30 RMK A01 T02570218  RH  079%=      5-min Rain = 0
KDO1 062314Z 04011KT 25/21 A30 RMK A01 T02540213  RH  078%=      5-min Rain = 0
KDO1 062315Z 04010KT 25/21 A30 RMK A01 T02520214  RH  079%=      5-min Rain = 0
KDO1 062316Z 04009KT 25/22 A30 RMK A01 T02510217  RH  081%=      5-min Rain = 0
KDO1 062317Z 03009KT 25/22 A30 RMK A01 T02510217  RH  082%=      5-min Rain = 0
KDO1 062318Z 03008KT 25/22 A30 RMK A01 T02500220  RH  083%=      5-min Rain = 0
KDO1 062319Z 02007KT 25/22 A30 RMK A01 T02490220  RH  084%=      5-min Rain = 0
KDO1 062320Z 02007KT 25/22 A30 RMK A01 T02490221  RH  084%=      5-min Rain = 0
KDO1 062321Z 02006KT 25/22 A30 RMK A01 T02480218  RH  083%=      5-min Rain = 0.01
KDO1 062322Z 01006KT 25/22 A30 RMK A01 T02480215  RH  082%=      5-min Rain = 0
KDO1 062323Z 01005KT 25/22 A30 RMK A01 T02480216  RH  083%=      5-min Rain = 0
KDO1 062324Z 00004KT 25/22 A30 RMK A01 T02490223  RH  086%=      5-min Rain = 0
KDO1 062325Z 35005KT 25/22 A30 RMK A01 T02490222  RH  085%=      5-min Rain = 0
KDO1 062326Z 35005KT 25/22 A2999 RMK A01 T02500221  RH  084%=      5-min Rain = 0
KDO1 062327Z 35005KT 25/22 A2999 RMK A01 T02500222  RH  084%=      5-min Rain = 0
KDO1 062328Z 34007KT 25/22 A2999 RMK A01 T02510221  RH  083%=      5-min Rain = 0
KDO1 062329Z 34006KT 25/22 A2999 RMK A01 T02510220  RH  083%=      5-min Rain = 0
KDO1 062330Z 35006KT 25/22 A2999 RMK A01 T02510221  RH  084%=      5-min Rain = 0
KDO1 062331Z 35006KT 25/22 A2999 RMK A01 T02510221  RH  083%=      5-min Rain = 0
KDO1 062332Z 35006KT 25/22 A30 RMK A01 T02520222  RH  083%=      5-min Rain = 0
KDO1 062333Z 35005KT 25/22 A30 RMK A01 T02520220  RH  082%=      5-min Rain = 0
KDO1 062334Z 36005KT 25/22 A2999 RMK A01 T02530221  RH  083%=      5-min Rain = 0
KDO1 062335Z 00005KT 25/22 A2999 RMK A01 T02530222  RH  083%=      5-min Rain = 0
KDO1 062336Z 36005KT 25/22 A2999 RMK A01 T02530222  RH  083%=      5-min Rain = 0
KDO1 062337Z 00004KT 25/22 A2999 RMK A01 T02530224  RH  084%=      5-min Rain = 0
KDO1 062338Z 36005KT 25/23 A2999 RMK A01 T02540227  RH  085%=      5-min Rain = 0
KDO1 062339Z 35006KT 25/22 A2999 RMK A01 T02540221  RH  082%=      5-min Rain = 0
KDO1 062340Z 36004KT 26/22 A2999 RMK A01 T02550222  RH  082%=      5-min Rain = 0
KDO1 062341Z 02003KT 26/22 A2999 RMK A01 T02550221  RH  082%=      5-min Rain = 0
KDO1 062342Z 04003KT 26/23 A2999 RMK A01 T02560228  RH  084%=      5-min Rain = 0
KDO1 062343Z 02003KT 26/23 A2999 RMK A01 T02570231  RH  086%=      5-min Rain = 0
KDO1 062344Z 00005KT 26/23 A2999 RMK A01 T02560226  RH  083%=      5-min Rain = 0
KDO1 062345Z 36004KT 26/22 A2998 RMK A01 T02560220  RH  080%=      5-min Rain = 0
KDO1 062346Z 00003KT 26/22 A2998 RMK A01 T02580224  RH  081%=      5-min Rain = 0
KDO1 062347Z 36003KT 26/22 A2998 RMK A01 T02610222  RH  079%=      5-min Rain = 0
KDO1 062348Z 02004KT 26/22 A2998 RMK A01 T02630221  RH  078%=      5-min Rain = 0
KDO1 062349Z 03004KT 27/22 A2998 RMK A01 T02650215  RH  074%=      5-min Rain = 0
KDO1 062350Z 03004KT 27/22 A2998 RMK A01 T02670217  RH  074%=      5-min Rain = 0
KDO1 062351Z 02004KT 27/22 A2998 RMK A01 T02690219  RH  074%=      5-min Rain = 0
KDO1 062352Z 03005KT 27/22 A2998 RMK A01 T02710220  RH  074%=      5-min Rain = 0
KDO1 062353Z 02005KT 27/22 A2998 RMK A01 T02730218  RH  072%=      5-min Rain = 0
KDO1 062354Z 03005KT 28/22 A2998 RMK A01 T02750216  RH  070%=      5-min Rain = 0
KDO1 062355Z 04004KT 28/21 A2998 RMK A01 T02770213  RH  068%=      5-min Rain = 0
KDO1 062356Z 05003KT 28/22 A2998 RMK A01 T02780220  RH  070%=      5-min Rain = 0
KDO1 062357Z 03004KT 28/22 A2997 RMK A01 T02800220  RH  070%=      5-min Rain = 0
KDO1 062358Z 04005KT 28/22 A2997 RMK A01 T02820219  RH  069%=      5-min Rain = 0
KDO1 062359Z 04005KT 28/22 A2997 RMK A01 T02820217  RH  068%=      5-min Rain = 0
KDO1 070000Z 06005KT 28/22 A2997 RMK A01 T02820218  RH  068%=      5-min Rain = 0
KDO1 070001Z 05005KT 28/22 A2997 RMK A01 T02820220  RH  069%=      5-min Rain = 0
KDO1 070002Z 04005KT 28/22 A2997 RMK A01 T02820221  RH  069%=      5-min Rain = 0
KDO1 070003Z 04004KT 28/22 A2997 RMK A01 T02830221  RH  069%=      5-min Rain = 0
KDO1 070004Z 05005KT 28/22 A2998 RMK A01 T02820219  RH  068%=      5-min Rain = 0
KDO1 070005Z 04004KT 28/22 A2997 RMK A01 T02820224  RH  071%=      5-min Rain = 0
KDO1 070006Z 03004KT 28/23 A2997 RMK A01 T02820225  RH  071%=      5-min Rain = 0
KDO1 070007Z 03005KT 28/22 A2997 RMK A01 T02830224  RH  070%=      5-min Rain = 0
KDO1 070008Z 03003KT 28/22 A2997 RMK A01 T02830224  RH  070%=      5-min Rain = 0
KDO1 070009Z 04004KT 28/23 A2997 RMK A01 T02840226  RH  071%=      5-min Rain = 0
KDO1 070010Z 03004KT 29/22 A2997 RMK A01 T02850223  RH  069%=      5-min Rain = 0
KDO1 070011Z 03005KT 29/22 A2997 RMK A01 T02850224  RH  069%=      5-min Rain = 0
KDO1 070012Z 04005KT 29/22 A2997 RMK A01 T02850223  RH  069%=      5-min Rain = 0
KDO1 070013Z 04006KT 29/23 A2997 RMK A01 T02860226  RH  070%=      5-min Rain = 0
KDO1 070014Z 04006KT 29/22 A2997 RMK A01 T02860224  RH  069%=      5-min Rain = 0
KDO1 070015Z 04005KT 29/22 A2997 RMK A01 T02870224  RH  069%=      5-min Rain = 0
KDO1 070016Z 03004KT 29/22 A2997 RMK A01 T02860224  RH  069%=      5-min Rain = 0
KDO1 070017Z 03004KT 29/23 A2997 RMK A01 T02860227  RH  070%=      5-min Rain = 0
KDO1 070018Z 03005KT 29/23 A2997 RMK A01 T02870225  RH  069%=      5-min Rain = 0
KDO1 070019Z 03004KT 29/23 A2997 RMK A01 T02880227  RH  070%=      5-min Rain = 0
KDO1 070020Z 02004KT 29/23 A2997 RMK A01 T02880225  RH  069%=      5-min Rain = 0
KDO1 070021Z 03004KT 29/23 A2997 RMK A01 T02880226  RH  069%=      5-min Rain = 0
KDO1 070022Z 04004KT 29/23 A2997 RMK A01 T02880226  RH  069%=      5-min Rain = 0
KDO1 070023Z 05004KT 29/23 A2997 RMK A01 T02890225  RH  069%=      5-min Rain = 0
KDO1 070024Z 03002KT 29/23 A2997 RMK A01 T02890226  RH  069%=      5-min Rain = 0
KDO1 070025Z 05002KT 29/23 A2997 RMK A01 T02900228  RH  069%=      5-min Rain = 0
KDO1 070026Z 06007KT 29/22 A2997 RMK A01 T02920222  RH  066%=      5-min Rain = 0
KDO1 070027Z 08005KT 29/23 A2997 RMK A01 T02920226  RH  067%=      5-min Rain = 0
KDO1 070028Z 10005KT 29/23 A2997 RMK A01 T02930225  RH  067%=      5-min Rain = 0
KDO1 070029Z 11005G10KT 29/22 A2997 RMK A01 T02930221  RH  065%=      5-min Rain = 0
KDO1 070030Z 13008KT 30/21 A2997 RMK A01 T02950209  RH  060%=      5-min Rain = 0
KDO1 070031Z 10005KT 30/21 A2997 RMK A01 T02970209  RH  059%=      5-min Rain = 0
KDO1 070032Z 09007KT 30/21 A2997 RMK A01 T02990209  RH  059%=      5-min Rain = 0
KDO1 070033Z 10008KT 30/21 A2997 RMK A01 T02990209  RH  058%=      5-min Rain = 0
KDO1 070034Z 10010KT 30/21 A2997 RMK A01 T03000207  RH  057%=      5-min Rain = 0
KDO1 070035Z 09009KT 30/21 A2997 RMK A01 T03000205  RH  057%=      5-min Rain = 0
KDO1 070036Z 09007KT 30/21 A2997 RMK A01 T03000205  RH  057%=      5-min Rain = 0
KDO1 070037Z 10008KT 30/21 A2997 RMK A01 T03000208  RH  058%=      5-min Rain = 0
KDO1 070038Z 08007KT 30/21 A2997 RMK A01 T03000210  RH  059%=      5-min Rain = 0
KDO1 070039Z 09009KT 30/21 A2997 RMK A01 T03000209  RH  058%=      5-min Rain = 0
KDO1 070040Z 11008KT 30/21 A2997 RMK A01 T03000208  RH  058%=      5-min Rain = 0
KDO1 070041Z 11008KT 30/21 A2997 RMK A01 T03000207  RH  058%=      5-min Rain = 0
KDO1 070042Z 11008KT 30/21 A2997 RMK A01 T03000207  RH  058%=      5-min Rain = 0
KDO1 070043Z 11009KT 30/21 A2997 RMK A01 T03000206  RH  057%=      5-min Rain = 0
KDO1 070044Z 11009KT 30/21 A2997 RMK A01 T03000207  RH  057%=      5-min Rain = 0
KDO1 070045Z 12009KT 30/21 A2997 RMK A01 T03000206  RH  057%=      5-min Rain = 0
KDO1 070046Z 12009KT 30/21 A2997 RMK A01 T02990207  RH  058%=      5-min Rain = 0
KDO1 070047Z 10008KT 30/21 A2997 RMK A01 T03000207  RH  058%=      5-min Rain = 0
KDO1 070048Z 09008KT 30/21 A2997 RMK A01 T03000209  RH  058%=      5-min Rain = 0
KDO1 070049Z 09008KT 30/21 A2997 RMK A01 T02990207  RH  058%=      5-min Rain = 0
KDO1 070050Z 10009KT 30/21 A2997 RMK A01 T02990207  RH  058%=      5-min Rain = 0
KDO1 070051Z 10008KT 30/21 A2997 RMK A01 T02990208  RH  058%=      5-min Rain = 0
KDO1 070052Z 10006KT 30/21 A2997 RMK A01 T02990209  RH  059%=      5-min Rain = 0
KDO1 070053Z 09007KT 30/21 A2997 RMK A01 T02980210  RH  059%=      5-min Rain = 0
KDO1 070054Z 09011KT 30/21 A2997 RMK A01 T02990209  RH  058%=      5-min Rain = 0
KDO1 070055Z 10011KT 30/21 A2997 RMK A01 T02980206  RH  058%=      5-min Rain = 0
KDO1 070056Z 10011KT 30/21 A2997 RMK A01 T02980207  RH  058%=      5-min Rain = 0
KDO1 070057Z 10011KT 30/21 A2997 RMK A01 T02970206  RH  058%=      5-min Rain = 0
KDO1 070058Z 10010KT 30/21 A2998 RMK A01 T02970206  RH  058%=      5-min Rain = 0
KDO1 070059Z 11012KT 30/21 A2998 RMK A01 T02970206  RH  058%=      5-min Rain = 0
KDO1 070100Z 11009KT 30/21 A2998 RMK A01 T02970208  RH  059%=      5-min Rain = 0
KDO1 070101Z 10010KT 30/21 A2998 RMK A01 T02970209  RH  059%=      5-min Rain = 0
KDO1 070102Z 09011KT 30/21 A2998 RMK A01 T02960208  RH  059%=      5-min Rain = 0
KDO1 070103Z 10008KT 30/21 A2998 RMK A01 T02960208  RH  059%=      5-min Rain = 0
KDO1 070104Z 09010KT 30/21 A2998 RMK A01 T02960208  RH  059%=      5-min Rain = 0
KDO1 070105Z 09010KT 30/21 A2998 RMK A01 T02960207  RH  059%=      5-min Rain = 0
KDO1 070106Z 10008KT 30/21 A2998 RMK A01 T02950208  RH  060%=      5-min Rain = 0
KDO1 070107Z 09009KT 30/21 A2998 RMK A01 T02950207  RH  059%=      5-min Rain = 0
KDO1 070108Z 09009KT 29/21 A2998 RMK A01 T02940208  RH  060%=      5-min Rain = 0
KDO1 070109Z 10010KT 29/21 A2998 RMK A01 T02940207  RH  059%=      5-min Rain = 0
KDO1 070110Z 10009KT 29/21 A2998 RMK A01 T02940207  RH  059%=      5-min Rain = 0
KDO1 070111Z 09008KT 29/21 A2998 RMK A01 T02940207  RH  060%=      5-min Rain = 0
KDO1 070112Z 09007KT 29/21 A2998 RMK A01 T02930207  RH  060%=      5-min Rain = 0
KDO1 070113Z 10008KT 29/21 A2998 RMK A01 T02930208  RH  060%=      5-min Rain = 0
KDO1 070114Z 10007KT 29/21 A2998 RMK A01 T02930207  RH  060%=      5-min Rain = 0
KDO1 070115Z 10007KT 29/21 A2998 RMK A01 T02930207  RH  060%=      5-min Rain = 0
KDO1 070116Z 10007KT 29/21 A2998 RMK A01 T02920207  RH  060%=      5-min Rain = 0
KDO1 070117Z 10006KT 29/21 A2998 RMK A01 T02920206  RH  060%=      5-min Rain = 0
KDO1 070118Z 10005KT 29/21 A2998 RMK A01 T02920207  RH  060%=      5-min Rain = 0
KDO1 070119Z 09007KT 29/21 A2998 RMK A01 T02920207  RH  060%=      5-min Rain = 0
KDO1 070120Z 10007KT 29/21 A2998 RMK A01 T02920207  RH  060%=      5-min Rain = 0
KDO1 070121Z 10008KT 29/21 A2998 RMK A01 T02920206  RH  060%=      5-min Rain = 0
KDO1 070122Z 09007KT 29/21 A2998 RMK A01 T02920206  RH  060%=      5-min Rain = 0
KDO1 070123Z 09008KT 29/21 A2998 RMK A01 T02910205  RH  060%=      5-min Rain = 0
KDO1 070124Z 09007KT 29/21 A2999 RMK A01 T02910205  RH  060%=      5-min Rain = 0
KDO1 070125Z 09007KT 29/21 A2999 RMK A01 T02910206  RH  060%=      5-min Rain = 0
KDO1 070126Z 09007KT 29/21 A2999 RMK A01 T02900206  RH  061%=      5-min Rain = 0
KDO1 070127Z 10008KT 29/21 A2999 RMK A01 T02900206  RH  061%=      5-min Rain = 0
KDO1 070128Z 10008KT 29/21 A2999 RMK A01 T02890206  RH  061%=      5-min Rain = 0
KDO1 070129Z 10006KT 29/21 A2999 RMK A01 T02890207  RH  061%=      5-min Rain = 0
KDO1 070130Z 09006KT 29/21 A2999 RMK A01 T02890207  RH  061%=      5-min Rain = 0
KDO1 070131Z 10007KT 29/21 A2999 RMK A01 T02880207  RH  061%=      5-min Rain = 0
KDO1 070132Z 09006KT 29/21 A2999 RMK A01 T02880207  RH  062%=      5-min Rain = 0
KDO1 070133Z 10008KT 29/21 A2999 RMK A01 T02880207  RH  062%=      5-min Rain = 0
KDO1 070134Z 10007KT 29/21 A2999 RMK A01 T02870207  RH  062%=      5-min Rain = 0
KDO1 070135Z 09008KT 29/21 A2999 RMK A01 T02870207  RH  062%=      5-min Rain = 0
KDO1 070136Z 09007KT 29/21 A2999 RMK A01 T02870207  RH  062%=      5-min Rain = 0
KDO1 070137Z 10008KT 29/21 A2999 RMK A01 T02870207  RH  062%=      5-min Rain = 0
KDO1 070138Z 09007KT 29/21 A2999 RMK A01 T02870207  RH  062%=      5-min Rain = 0
KDO1 070139Z 09006KT 29/21 A2999 RMK A01 T02860207  RH  062%=      5-min Rain = 0
KDO1 070140Z 09005KT 29/21 A2999 RMK A01 T02860207  RH  062%=      5-min Rain = 0
KDO1 070141Z 09005KT 29/21 A2999 RMK A01 T02850208  RH  063%=      5-min Rain = 0
KDO1 070142Z 09005KT 28/21 A2999 RMK A01 T02840208  RH  063%=      5-min Rain = 0
KDO1 070143Z 08005KT 28/21 A2999 RMK A01 T02840207  RH  063%=      5-min Rain = 0
KDO1 070144Z 09006KT 28/21 A2999 RMK A01 T02830208  RH  064%=      5-min Rain = 0
KDO1 070145Z 09005KT 28/21 A2999 RMK A01 T02820208  RH  064%=      5-min Rain = 0
KDO1 070146Z 09006KT 28/21 A2999 RMK A01 T02820208  RH  064%=      5-min Rain = 0
KDO1 070147Z 08005KT 28/21 A2999 RMK A01 T02810208  RH  064%=      5-min Rain = 0
KDO1 070148Z 09005KT 28/21 A2999 RMK A01 T02800208  RH  065%=      5-min Rain = 0
KDO1 070149Z 09005KT 28/21 A2999 RMK A01 T02800207  RH  065%=      5-min Rain = 0
KDO1 070150Z 09006KT 28/21 A2999 RMK A01 T02790208  RH  065%=      5-min Rain = 0
KDO1 070151Z 09006KT 28/21 A2999 RMK A01 T02790207  RH  065%=      5-min Rain = 0
KDO1 070152Z 08006KT 28/21 A2999 RMK A01 T02790207  RH  065%=      5-min Rain = 0
KDO1 070153Z 08005KT 28/21 A2999 RMK A01 T02790207  RH  065%=      5-min Rain = 0
KDO1 070154Z 08005KT 28/21 A2999 RMK A01 T02780207  RH  065%=      5-min Rain = 0
KDO1 070155Z 08005KT 28/21 A2999 RMK A01 T02780207  RH  065%=      5-min Rain = 0
KDO1 070156Z 08006KT 28/21 A2999 RMK A01 T02770207  RH  066%=      5-min Rain = 0
KDO1 070157Z 08005KT 28/21 A2999 RMK A01 T02770208  RH  066%=      5-min Rain = 0
KDO1 070158Z 08006KT 28/21 A2999 RMK A01 T02760208  RH  066%=      5-min Rain = 0
KDO1 070159Z 08006KT 28/21 A2999 RMK A01 T02760208  RH  066%=      5-min Rain = 0
KDO1 070200Z 09006KT 28/21 A2999 RMK A01 T02750208  RH  067%=      5-min Rain = 0
KDO1 070201Z 09006KT 28/21 A2999 RMK A01 T02750207  RH  067%=      5-min Rain = 0
KDO1 070202Z 09005KT 28/21 A2999 RMK A01 T02750208  RH  067%=      5-min Rain = 0
KDO1 070203Z 09005KT 27/21 A2999 RMK A01 T02740208  RH  067%=      5-min Rain = 0
KDO1 070204Z 09005KT 27/21 A2999 RMK A01 T02740208  RH  067%=      5-min Rain = 0
KDO1 070205Z 09005KT 27/21 A2999 RMK A01 T02740208  RH  067%=      5-min Rain = 0
KDO1 070206Z 09004KT 27/21 A30 RMK A01 T02730208  RH  068%=      5-min Rain = 0
KDO1 070207Z 10004KT 27/21 A30 RMK A01 T02720208  RH  068%=      5-min Rain = 0
KDO1 070208Z 11004KT 27/21 A30 RMK A01 T02720209  RH  068%=      5-min Rain = 0
KDO1 070209Z 12004KT 27/21 A30 RMK A01 T02710209  RH  069%=      5-min Rain = 0
KDO1 070210Z 12004KT 27/21 A30 RMK A01 T02710209  RH  069%=      5-min Rain = 0
KDO1 070211Z 13004KT 27/21 A30 RMK A01 T02700209  RH  069%=      5-min Rain = 0
KDO1 070212Z 14003KT 27/21 A30 RMK A01 T02690209  RH  070%=      5-min Rain = 0
KDO1 070213Z 14003KT 27/21 A30 RMK A01 T02680209  RH  070%=      5-min Rain = 0
KDO1 070214Z 13004KT 27/21 A30 RMK A01 T02680209  RH  070%=      5-min Rain = 0
KDO1 070215Z 13003KT 27/21 A30 RMK A01 T02670209  RH  070%=      5-min Rain = 0
KDO1 070216Z 13004KT 27/21 A30 RMK A01 T02670209  RH  070%=      5-min Rain = 0
KDO1 070217Z 13004KT 27/21 A30 RMK A01 T02660208  RH  070%=      5-min Rain = 0
KDO1 070218Z 12004KT 27/21 A30 RMK A01 T02660208  RH  071%=      5-min Rain = 0
KDO1 070219Z 13004KT 27/21 A30 RMK A01 T02660208  RH  071%=      5-min Rain = 0
KDO1 070220Z 12004KT 27/21 A30 RMK A01 T02660209  RH  071%=      5-min Rain = 0
KDO1 070221Z 11003KT 27/21 A30 RMK A01 T02650208  RH  071%=      5-min Rain = 0
KDO1 070222Z 11003KT 27/21 A30 RMK A01 T02650208  RH  071%=      5-min Rain = 0
KDO1 070223Z 11004KT 27/21 A30 RMK A01 T02650209  RH  071%=      5-min Rain = 0
KDO1 070224Z 11004KT 27/21 A30 RMK A01 T02650209  RH  071%=      5-min Rain = 0
KDO1 070225Z 10004KT 27/21 A30 RMK A01 T02660209  RH  071%=      5-min Rain = 0
KDO1 070226Z 10004KT 27/21 A30 RMK A01 T02650209  RH  071%=      5-min Rain = 0
KDO1 070227Z 10004KT 27/21 A30 RMK A01 T02650210  RH  072%=      5-min Rain = 0
KDO1 070228Z 10004KT 27/21 A30 RMK A01 T02650210  RH  072%=      5-min Rain = 0
KDO1 070229Z 10005KT 27/21 A30 RMK A01 T02650210  RH  072%=      5-min Rain = 0
KDO1 070230Z 10004KT 26/21 A30 RMK A01 T02640210  RH  072%=      5-min Rain = 0
KDO1 070231Z 10003KT 27/21 A30 RMK A01 T02650210  RH  072%=      5-min Rain = 0
KDO1 070232Z 11004KT 27/21 A30 RMK A01 T02650211  RH  072%=      5-min Rain = 0
KDO1 070233Z 11003KT 27/21 A3001 RMK A01 T02650210  RH  072%=      5-min Rain = 0
KDO1 070234Z 11004KT 26/21 A3001 RMK A01 T02640210  RH  072%=      5-min Rain = 0
KDO1 070235Z 11004KT 26/21 A3001 RMK A01 T02640211  RH  073%=      5-min Rain = 0
KDO1 070236Z 11003KT 26/21 A3001 RMK A01 T02640211  RH  073%=      5-min Rain = 0
KDO1 070237Z 11003KT 26/21 A3001 RMK A01 T02630211  RH  073%=      5-min Rain = 0
KDO1 070238Z 11003KT 26/21 A3001 RMK A01 T02630211  RH  073%=      5-min Rain = 0
KDO1 070239Z 11003KT 26/21 A3001 RMK A01 T02620211  RH  073%=      5-min Rain = 0
KDO1 070240Z 11003KT 26/21 A3001 RMK A01 T02620211  RH  073%=      5-min Rain = 0
KDO1 070241Z 11003KT 26/21 A3001 RMK A01 T02620211  RH  073%=      5-min Rain = 0
KDO1 070242Z 12003KT 26/21 A3001 RMK A01 T02620211  RH  074%=      5-min Rain = 0
KDO1 070243Z 11003KT 26/21 A3001 RMK A01 T02610211  RH  074%=      5-min Rain = 0
KDO1 070244Z 11003KT 26/21 A3001 RMK A01 T02610211  RH  074%=      5-min Rain = 0
KDO1 070245Z 11004KT 26/21 A3001 RMK A01 T02620211  RH  074%=      5-min Rain = 0
KDO1 070246Z 11004KT 26/21 A3001 RMK A01 T02610211  RH  074%=      5-min Rain = 0
KDO1 070247Z 10003KT 26/21 A3001 RMK A01 T02620211  RH  074%=      5-min Rain = 0
KDO1 070248Z 10004KT 26/21 A3001 RMK A01 T02610211  RH  074%=      5-min Rain = 0
KDO1 070249Z 10004KT 26/21 A3001 RMK A01 T02610211  RH  074%=      5-min Rain = 0
KDO1 070250Z 10004KT 26/21 A3001 RMK A01 T02610212  RH  074%=      5-min Rain = 0
KDO1 070251Z 10004KT 26/21 A3001 RMK A01 T02600211  RH  075%=      5-min Rain = 0
KDO1 070252Z 10004KT 26/21 A3001 RMK A01 T02600212  RH  075%=      5-min Rain = 0
KDO1 070253Z 10004KT 26/21 A3001 RMK A01 T02590211  RH  075%=      5-min Rain = 0
KDO1 070254Z 10003KT 26/21 A3001 RMK A01 T02590212  RH  075%=      5-min Rain = 0
KDO1 070255Z 10003KT 26/21 A3002 RMK A01 T02590211  RH  075%=      5-min Rain = 0
KDO1 070256Z 10003KT 26/21 A3002 RMK A01 T02590212  RH  075%=      5-min Rain = 0
KDO1 070257Z 10003KT 26/21 A3002 RMK A01 T02580211  RH  075%=      5-min Rain = 0
KDO1 070258Z 11003KT 26/21 A3002 RMK A01 T02580211  RH  075%=      5-min Rain = 0
KDO1 070259Z 11003KT 26/21 A3002 RMK A01 T02580211  RH  075%=      5-min Rain = 0
KDO1 070300Z 11003KT 26/21 A3002 RMK A01 T02580211  RH  075%=      5-min Rain = 0
KDO1 070301Z 12003KT 26/21 A3002 RMK A01 T02580211  RH  075%=      5-min Rain = 0
KDO1 070302Z 12003KT 26/21 A3002 RMK A01 T02580211  RH  075%=      5-min Rain = 0
KDO1 070303Z 12003KT 26/21 A3002 RMK A01 T02580211  RH  075%=      5-min Rain = 0
KDO1 070304Z 12003KT 26/21 A3002 RMK A01 T02570210  RH  075%=      5-min Rain = 0
KDO1 070305Z 12002KT 26/21 A3002 RMK A01 T02570210  RH  075%=      5-min Rain = 0
KDO1 070306Z 12002KT 26/21 A3002 RMK A01 T02570210  RH  075%=      5-min Rain = 0
KDO1 070307Z 12003KT 26/21 A3002 RMK A01 T02570210  RH  075%=      5-min Rain = 0
KDO1 070308Z 12003KT 26/21 A3002 RMK A01 T02560209  RH  075%=      5-min Rain = 0
KDO1 070309Z 11003KT 26/21 A3002 RMK A01 T02560209  RH  075%=      5-min Rain = 0
KDO1 070310Z 11003KT 26/21 A3002 RMK A01 T02560209  RH  075%=      5-min Rain = 0
KDO1 070311Z 11003KT 26/21 A3002 RMK A01 T02560209  RH  075%=      5-min Rain = 0
KDO1 070312Z 11003KT 26/21 A3002 RMK A01 T02560209  RH  075%=      5-min Rain = 0
KDO1 070313Z 11003KT 26/21 A3002 RMK A01 T02550208  RH  075%=      5-min Rain = 0
KDO1 070314Z 10002KT 26/21 A3002 RMK A01 T02550208  RH  075%=      5-min Rain = 0
KDO1 070315Z 11003KT 26/21 A3002 RMK A01 T02550208  RH  075%=      5-min Rain = 0
KDO1 070316Z 11002KT 26/21 A3002 RMK A01 T02550208  RH  075%=      5-min Rain = 0
KDO1 070317Z 11002KT 26/21 A3002 RMK A01 T02550207  RH  075%=      5-min Rain = 0
KDO1 070318Z 11002KT 26/21 A3003 RMK A01 T02550207  RH  075%=      5-min Rain = 0
KDO1 070319Z 11002KT 26/21 A3003 RMK A01 T02550205  RH  074%=      5-min Rain = 0
KDO1 070320Z 12002KT 26/21 A3003 RMK A01 T02560206  RH  074%=      5-min Rain = 0
KDO1 070321Z 12002KT 26/21 A3003 RMK A01 T02560206  RH  074%=      5-min Rain = 0
KDO1 070322Z 12002KT 26/21 A3003 RMK A01 T02560206  RH  074%=      5-min Rain = 0
KDO1 070323Z 12002KT 26/21 A3003 RMK A01 T02560206  RH  074%=      5-min Rain = 0
KDO1 070324Z 11003KT 26/21 A3003 RMK A01 T02560207  RH  074%=      5-min Rain = 0
KDO1 070325Z 12003KT 26/21 A3003 RMK A01 T02560206  RH  074%=      5-min Rain = 0
KDO1 070326Z 11003KT 26/21 A3003 RMK A01 T02560207  RH  074%=      5-min Rain = 0
KDO1 070327Z 11003KT 26/21 A3003 RMK A01 T02550206  RH  074%=      5-min Rain = 0
KDO1 070328Z 11002KT 26/21 A3003 RMK A01 T02550207  RH  075%=      5-min Rain = 0
KDO1 070329Z 11003KT 25/21 A3003 RMK A01 T02540207  RH  075%=      5-min Rain = 0
KDO1 070330Z 11003KT 25/21 A3003 RMK A01 T02540207  RH  075%=      5-min Rain = 0
KDO1 070331Z 12003KT 25/21 A3003 RMK A01 T02540207  RH  075%=      5-min Rain = 0
KDO1 070332Z 12002KT 25/21 A3003 RMK A01 T02530207  RH  076%=      5-min Rain = 0
KDO1 070333Z 13002KT 25/21 A3003 RMK A01 T02530207  RH  076%=      5-min Rain = 0
KDO1 070334Z 12002KT 25/21 A3003 RMK A01 T02520207  RH  076%=      5-min Rain = 0
KDO1 070335Z 12002KT 25/21 A3003 RMK A01 T02520206  RH  076%=      5-min Rain = 0
KDO1 070336Z 12002KT 25/21 A3003 RMK A01 T02520207  RH  076%=      5-min Rain = 0
KDO1 070337Z 13002KT 25/21 A3003 RMK A01 T02510207  RH  076%=      5-min Rain = 0
KDO1 070338Z 13002KT 25/21 A3003 RMK A01 T02510207  RH  076%=      5-min Rain = 0
KDO1 070339Z 13003KT 25/21 A3003 RMK A01 T02500205  RH  076%=      5-min Rain = 0
KDO1 070340Z 12003KT 25/21 A3003 RMK A01 T02500205  RH  076%=      5-min Rain = 0
KDO1 070341Z 14002KT 25/20 A3003 RMK A01 T02500204  RH  076%=      5-min Rain = 0
KDO1 070342Z 13002KT 25/21 A3003 RMK A01 T02510205  RH  075%=      5-min Rain = 0
KDO1 070343Z 13002KT 25/20 A3003 RMK A01 T02510204  RH  075%=      5-min Rain = 0
KDO1 070344Z 12002KT 25/20 A3003 RMK A01 T02510204  RH  075%=      5-min Rain = 0
KDO1 070345Z 12002KT 25/20 A3003 RMK A01 T02510204  RH  075%=      5-min Rain = 0
KDO1 070346Z 11003KT 25/20 A3003 RMK A01 T02510204  RH  075%=      5-min Rain = 0
KDO1 070347Z 11003KT 25/20 A3003 RMK A01 T02510204  RH  075%=      5-min Rain = 0
KDO1 070348Z 12003KT 25/20 A3003 RMK A01 T02510204  RH  075%=      5-min Rain = 0
KDO1 070349Z 12003KT 25/20 A3003 RMK A01 T02520204  RH  075%=      5-min Rain = 0
KDO1 070350Z 11003KT 25/20 A3003 RMK A01 T02520204  RH  075%=      5-min Rain = 0
KDO1 070351Z 12003KT 25/21 A3003 RMK A01 T02520205  RH  075%=      5-min Rain = 0
KDO1 070352Z 11003KT 25/21 A3003 RMK A01 T02520205  RH  075%=      5-min Rain = 0
KDO1 070353Z 10004KT 25/21 A3003 RMK A01 T02520205  RH  075%=      5-min Rain = 0
KDO1 070354Z 11003KT 25/21 A3003 RMK A01 T02510205  RH  075%=      5-min Rain = 0
KDO1 070355Z 11003KT 25/21 A3003 RMK A01 T02510205  RH  076%=      5-min Rain = 0
KDO1 070356Z 11003KT 25/21 A3003 RMK A01 T02510205  RH  076%=      5-min Rain = 0
KDO1 070357Z 11003KT 25/21 A3003 RMK A01 T02510205  RH  076%=      5-min Rain = 0
KDO1 070358Z 11003KT 25/21 A3003 RMK A01 T02500205  RH  076%=      5-min Rain = 0
KDO1 070359Z 12002KT 25/21 A3003 RMK A01 T02490205  RH  076%=      5-min Rain = 0
KDO1 070400Z 12002KT 25/21 A3003 RMK A01 T02490205  RH  076%=      5-min Rain = 0
KDO1 070401Z 12003KT 25/21 A3003 RMK A01 T02490205  RH  077%=      5-min Rain = 0
KDO1 070402Z 12002KT 25/21 A3003 RMK A01 T02480205  RH  077%=      5-min Rain = 0
KDO1 070403Z 12003KT 25/21 A3003 RMK A01 T02480205  RH  077%=      5-min Rain = 0
KDO1 070404Z 11003KT 25/21 A3003 RMK A01 T02480205  RH  077%=      5-min Rain = 0
KDO1 070405Z 12003KT 25/21 A3003 RMK A01 T02480205  RH  077%=      5-min Rain = 0
KDO1 070406Z 11003KT 25/21 A3003 RMK A01 T02470205  RH  077%=      5-min Rain = 0
KDO1 070407Z 11003KT 25/21 A3003 RMK A01 T02470205  RH  077%=      5-min Rain = 0
KDO1 070408Z 11003KT 25/21 A3003 RMK A01 T02470205  RH  078%=      5-min Rain = 0
KDO1 070409Z 12003KT 25/21 A3003 RMK A01 T02470205  RH  078%=      5-min Rain = 0
KDO1 070410Z 12003KT 25/21 A3003 RMK A01 T02470205  RH  078%=      5-min Rain = 0
KDO1 070411Z 11004KT 25/21 A3003 RMK A01 T02460205  RH  078%=      5-min Rain = 0
KDO1 070412Z 12004KT 25/21 A3003 RMK A01 T02460205  RH  078%=      5-min Rain = 0
KDO1 070413Z 12003KT 25/21 A3003 RMK A01 T02460205  RH  078%=      5-min Rain = 0
KDO1 070414Z 11003KT 25/21 A3003 RMK A01 T02460205  RH  078%=      5-min Rain = 0
KDO1 070415Z 13004KT 25/21 A3003 RMK A01 T02460206  RH  078%=      5-min Rain = 0
KDO1 070416Z 12003KT 25/21 A3003 RMK A01 T02460206  RH  078%=      5-min Rain = 0
KDO1 070417Z 13003KT 25/21 A3003 RMK A01 T02460206  RH  078%=      5-min Rain = 0
KDO1 070418Z 12004KT 25/21 A3003 RMK A01 T02460206  RH  078%=      5-min Rain = 0
KDO1 070419Z 12004KT 25/21 A3003 RMK A01 T02450206  RH  079%=      5-min Rain = 0
KDO1 070420Z 12004KT 25/21 A3003 RMK A01 T02450206  RH  079%=      5-min Rain = 0
KDO1 070421Z 12003KT 24/21 A3003 RMK A01 T02440206  RH  079%=      5-min Rain = 0
KDO1 070422Z 13004KT 24/21 A3003 RMK A01 T02440206  RH  079%=      5-min Rain = 0
KDO1 070423Z 13004KT 24/21 A3003 RMK A01 T02440206  RH  079%=      5-min Rain = 0
KDO1 070424Z 14004KT 24/21 A3003 RMK A01 T02440206  RH  080%=      5-min Rain = 0
KDO1 070425Z 14004KT 24/21 A3003 RMK A01 T02430206  RH  080%=      5-min Rain = 0
KDO1 070426Z 14004KT 24/21 A3003 RMK A01 T02430205  RH  079%=      5-min Rain = 0
KDO1 070427Z 15004KT 24/21 A3003 RMK A01 T02430205  RH  079%=      5-min Rain = 0
KDO1 070428Z 15004KT 24/21 A3003 RMK A01 T02430205  RH  079%=      5-min Rain = 0
KDO1 070429Z 15005KT 24/21 A3002 RMK A01 T02440205  RH  079%=      5-min Rain = 0
KDO1 070430Z 16005KT 24/21 A3002 RMK A01 T02440205  RH  079%=      5-min Rain = 0
KDO1 070431Z 15004KT 24/21 A3002 RMK A01 T02440205  RH  079%=      5-min Rain = 0
KDO1 070432Z 16005KT 24/21 A3002 RMK A01 T02440205  RH  079%=      5-min Rain = 0
KDO1 070433Z 16005KT 24/21 A3002 RMK A01 T02440205  RH  079%=      5-min Rain = 0
KDO1 070434Z 16005KT 24/21 A3002 RMK A01 T02440205  RH  079%=      5-min Rain = 0
KDO1 070435Z 16004KT 24/21 A3002 RMK A01 T02440206  RH  079%=      5-min Rain = 0
KDO1 070436Z 16005KT 24/21 A3002 RMK A01 T02440205  RH  079%=      5-min Rain = 0
KDO1 070437Z 17005KT 24/21 A3002 RMK A01 T02440205  RH  079%=      5-min Rain = 0
KDO1 070438Z 18005KT 24/21 A3002 RMK A01 T02440205  RH  079%=      5-min Rain = 0
KDO1 070439Z 18005KT 24/20 A3002 RMK A01 T02440204  RH  079%=      5-min Rain = 0
KDO1 070440Z 18005KT 24/21 A3002 RMK A01 T02440205  RH  079%=      5-min Rain = 0
KDO1 070441Z 18005KT 24/20 A3002 RMK A01 T02430204  RH  079%=      5-min Rain = 0
KDO1 070442Z 18005KT 24/21 A3002 RMK A01 T02430205  RH  079%=      5-min Rain = 0
KDO1 070443Z 17005KT 24/21 A3002 RMK A01 T02430205  RH  079%=      5-min Rain = 0
KDO1 070444Z 17004KT 24/21 A3003 RMK A01 T02420205  RH  080%=      5-min Rain = 0
KDO1 070445Z 17005KT 24/21 A3003 RMK A01 T02420205  RH  080%=      5-min Rain = 0
KDO1 070446Z 17005KT 24/21 A3003 RMK A01 T02420205  RH  080%=      5-min Rain = 0
KDO1 070447Z 17004KT 24/21 A3003 RMK A01 T02420206  RH  080%=      5-min Rain = 0
KDO1 070448Z 17004KT 24/21 A3003 RMK A01 T02420206  RH  080%=      5-min Rain = 0
KDO1 070449Z 18004KT 24/21 A3003 RMK A01 T02420206  RH  080%=      5-min Rain = 0
KDO1 070450Z 19003KT 24/21 A3003 RMK A01 T02420206  RH  080%=      5-min Rain = 0
KDO1 070451Z 21002KT 24/21 A3003 RMK A01 T02410205  RH  080%=      5-min Rain = 0
KDO1 070452Z 22002KT 24/20 A3003 RMK A01 T02400204  RH  080%=      5-min Rain = 0
KDO1 070453Z 21002KT 24/20 A3003 RMK A01 T02400203  RH  080%=      5-min Rain = 0
KDO1 070454Z 22002KT 24/20 A3003 RMK A01 T02390202  RH  080%=      5-min Rain = 0
KDO1 070455Z 21002KT 24/20 A3003 RMK A01 T02380202  RH  080%=      5-min Rain = 0
KDO1 070456Z 22002KT 24/20 A3003 RMK A01 T02370202  RH  080%=      5-min Rain = 0
KDO1 070457Z 22002KT 24/20 A3003 RMK A01 T02370202  RH  081%=      5-min Rain = 0
KDO1 070458Z 21003KT 24/20 A3003 RMK A01 T02370202  RH  081%=      5-min Rain = 0
KDO1 070459Z 21003KT 24/20 A3003 RMK A01 T02370203  RH  081%=      5-min Rain = 0

Page generated in 0.1192 seconds.